<?xml version='1.0' encoding='UTF-8'?>
<gpx version="1.1" creator="https://www.komoot.de" xmlns="http://www.topografix.com/GPX/1/1" xmlns:xsi="http://www.w3.org/2001/XMLSchema-instance" xsi:schemaLocation="http://www.topografix.com/GPX/1/1 http://www.topografix.com/GPX/1/1/gpx.xsd">
  <metadata>
    <name>45_640WittnauKaisten</name>
    <author>
      <link href="https://www.komoot.de">
        <text>komoot</text>
        <type>text/html</type>
      </link>
    </author>
  </metadata>
  <trk>
    <name>45_640WittnauKaisten</name>
    <trkseg>
      <trkpt lat="47.541395" lon="7.870803">
        <ele>342.399590</ele>
        <time>2021-11-07T14:30:33.057Z</time>
      </trkpt>
      <trkpt lat="47.540933" lon="7.871187">
        <ele>342.399590</ele>
        <time>2021-11-07T14:30:44.971Z</time>
      </trkpt>
      <trkpt lat="47.540894" lon="7.871220">
        <ele>342.399590</ele>
        <time>2021-11-07T14:30:46.071Z</time>
      </trkpt>
      <trkpt lat="47.540693" lon="7.871390">
        <ele>342.399590</ele>
        <time>2021-11-07T14:30:51.557Z</time>
      </trkpt>
      <trkpt lat="47.540524" lon="7.871533">
        <ele>342.589299</ele>
        <time>2021-11-07T14:30:55.807Z</time>
      </trkpt>
      <trkpt lat="47.540463" lon="7.871584">
        <ele>342.720308</ele>
        <time>2021-11-07T14:30:57.734Z</time>
      </trkpt>
      <trkpt lat="47.540265" lon="7.871808">
        <ele>343.186287</ele>
        <time>2021-11-07T14:31:03.108Z</time>
      </trkpt>
      <trkpt lat="47.540216" lon="7.871851">
        <ele>343.292809</ele>
        <time>2021-11-07T14:31:04.573Z</time>
      </trkpt>
      <trkpt lat="47.540034" lon="7.871970">
        <ele>343.664899</ele>
        <time>2021-11-07T14:31:09.209Z</time>
      </trkpt>
      <trkpt lat="47.539930" lon="7.872041">
        <ele>343.879080</ele>
        <time>2021-11-07T14:31:11.702Z</time>
      </trkpt>
      <trkpt lat="47.539841" lon="7.872151">
        <ele>344.095874</ele>
        <time>2021-11-07T14:31:14.839Z</time>
      </trkpt>
      <trkpt lat="47.539678" lon="7.872430">
        <ele>344.561752</ele>
        <time>2021-11-07T14:31:20.225Z</time>
      </trkpt>
      <trkpt lat="47.539222" lon="7.873416">
        <ele>345.931754</ele>
        <time>2021-11-07T14:31:37.888Z</time>
      </trkpt>
      <trkpt lat="47.538278" lon="7.874319">
        <ele>347.081779</ele>
        <time>2021-11-07T14:31:57.541Z</time>
      </trkpt>
      <trkpt lat="47.537716" lon="7.874966">
        <ele>347.971883</ele>
        <time>2021-11-07T14:32:11.517Z</time>
      </trkpt>
      <trkpt lat="47.537261" lon="7.875237">
        <ele>348.868044</ele>
        <time>2021-11-07T14:32:21.033Z</time>
      </trkpt>
      <trkpt lat="47.537182" lon="7.875293">
        <ele>349.028087</ele>
        <time>2021-11-07T14:32:23.022Z</time>
      </trkpt>
      <trkpt lat="47.536921" lon="7.875537">
        <ele>349.592085</ele>
        <time>2021-11-07T14:32:28.989Z</time>
      </trkpt>
      <trkpt lat="47.536757" lon="7.875759">
        <ele>349.998073</ele>
        <time>2021-11-07T14:32:33.591Z</time>
      </trkpt>
      <trkpt lat="47.536632" lon="7.875912">
        <ele>350.294394</ele>
        <time>2021-11-07T14:32:36.759Z</time>
      </trkpt>
      <trkpt lat="47.536444" lon="7.876177">
        <ele>350.768641</ele>
        <time>2021-11-07T14:32:43.720Z</time>
      </trkpt>
      <trkpt lat="47.535851" lon="7.877319">
        <ele>355.154521</ele>
        <time>2021-11-07T14:33:15.034Z</time>
      </trkpt>
      <trkpt lat="47.535770" lon="7.877432">
        <ele>355.678362</ele>
        <time>2021-11-07T14:33:19.214Z</time>
      </trkpt>
      <trkpt lat="47.535635" lon="7.877484">
        <ele>356.335057</ele>
        <time>2021-11-07T14:33:25.081Z</time>
      </trkpt>
      <trkpt lat="47.535551" lon="7.877487">
        <ele>356.730630</ele>
        <time>2021-11-07T14:33:26.990Z</time>
      </trkpt>
      <trkpt lat="47.535322" lon="7.877590">
        <ele>357.857332</ele>
        <time>2021-11-07T14:33:37.041Z</time>
      </trkpt>
      <trkpt lat="47.535088" lon="7.877742">
        <ele>359.060244</ele>
        <time>2021-11-07T14:33:44.873Z</time>
      </trkpt>
      <trkpt lat="47.534855" lon="7.878090">
        <ele>360.723275</ele>
        <time>2021-11-07T14:33:56.856Z</time>
      </trkpt>
      <trkpt lat="47.534778" lon="7.878270">
        <ele>361.457187</ele>
        <time>2021-11-07T14:34:04.163Z</time>
      </trkpt>
      <trkpt lat="47.534825" lon="7.878414">
        <ele>362.008058</ele>
        <time>2021-11-07T14:34:06.790Z</time>
      </trkpt>
      <trkpt lat="47.534946" lon="7.878790">
        <ele>363.442639</ele>
        <time>2021-11-07T14:34:18.838Z</time>
      </trkpt>
      <trkpt lat="47.534908" lon="7.878975">
        <ele>364.108639</ele>
        <time>2021-11-07T14:34:22.896Z</time>
      </trkpt>
      <trkpt lat="47.534616" lon="7.879490">
        <ele>366.424891</ele>
        <time>2021-11-07T14:34:39.842Z</time>
      </trkpt>
      <trkpt lat="47.533892" lon="7.880353">
        <ele>369.787889</ele>
        <time>2021-11-07T14:35:07.582Z</time>
      </trkpt>
      <trkpt lat="47.533606" lon="7.880961">
        <ele>371.003651</ele>
        <time>2021-11-07T14:35:19.891Z</time>
      </trkpt>
      <trkpt lat="47.533374" lon="7.881639">
        <ele>372.250737</ele>
        <time>2021-11-07T14:35:30.936Z</time>
      </trkpt>
      <trkpt lat="47.533014" lon="7.882949">
        <ele>372.910484</ele>
        <time>2021-11-07T14:35:48.851Z</time>
      </trkpt>
      <trkpt lat="47.532859" lon="7.883508">
        <ele>372.913591</ele>
        <time>2021-11-07T14:35:54.729Z</time>
      </trkpt>
      <trkpt lat="47.532713" lon="7.884122">
        <ele>372.916938</ele>
        <time>2021-11-07T14:36:00.426Z</time>
      </trkpt>
      <trkpt lat="47.532699" lon="7.884224">
        <ele>372.917473</ele>
        <time>2021-11-07T14:36:01.380Z</time>
      </trkpt>
      <trkpt lat="47.532670" lon="7.884773">
        <ele>372.650085</ele>
        <time>2021-11-07T14:36:05.874Z</time>
      </trkpt>
      <trkpt lat="47.532658" lon="7.884989">
        <ele>372.427205</ele>
        <time>2021-11-07T14:36:07.486Z</time>
      </trkpt>
      <trkpt lat="47.532650" lon="7.885569">
        <ele>371.830622</ele>
        <time>2021-11-07T14:36:11.988Z</time>
      </trkpt>
      <trkpt lat="47.532505" lon="7.887120">
        <ele>370.220389</ele>
        <time>2021-11-07T14:36:23.940Z</time>
      </trkpt>
      <trkpt lat="47.532288" lon="7.887728">
        <ele>369.466193</ele>
        <time>2021-11-07T14:36:29.116Z</time>
      </trkpt>
      <trkpt lat="47.532011" lon="7.888896">
        <ele>368.103368</ele>
        <time>2021-11-07T14:36:38.346Z</time>
      </trkpt>
      <trkpt lat="47.531843" lon="7.889349">
        <ele>367.534395</ele>
        <time>2021-11-07T14:36:42.383Z</time>
      </trkpt>
      <trkpt lat="47.531560" lon="7.889776">
        <ele>367.226567</ele>
        <time>2021-11-07T14:36:47.323Z</time>
      </trkpt>
      <trkpt lat="47.531265" lon="7.889937">
        <ele>367.198730</ele>
        <time>2021-11-07T14:36:51.291Z</time>
      </trkpt>
      <trkpt lat="47.531076" lon="7.890029">
        <ele>367.181116</ele>
        <time>2021-11-07T14:36:54.132Z</time>
      </trkpt>
      <trkpt lat="47.530606" lon="7.890373">
        <ele>367.134698</ele>
        <time>2021-11-07T14:37:01.981Z</time>
      </trkpt>
      <trkpt lat="47.530322" lon="7.890690">
        <ele>367.103211</ele>
        <time>2021-11-07T14:37:07.974Z</time>
      </trkpt>
      <trkpt lat="47.529972" lon="7.891210">
        <ele>367.417407</ele>
        <time>2021-11-07T14:37:17.136Z</time>
      </trkpt>
      <trkpt lat="47.529714" lon="7.891609">
        <ele>367.804580</ele>
        <time>2021-11-07T14:37:24.470Z</time>
      </trkpt>
      <trkpt lat="47.529695" lon="7.891638">
        <ele>367.832899</ele>
        <time>2021-11-07T14:37:25.456Z</time>
      </trkpt>
      <trkpt lat="47.529235" lon="7.892158">
        <ele>368.433542</ele>
        <time>2021-11-07T14:37:36.390Z</time>
      </trkpt>
      <trkpt lat="47.528331" lon="7.892682">
        <ele>369.610867</ele>
        <time>2021-11-07T14:37:55.092Z</time>
      </trkpt>
      <trkpt lat="47.528003" lon="7.892732">
        <ele>370.072431</ele>
        <time>2021-11-07T14:38:00.798Z</time>
      </trkpt>
      <trkpt lat="47.527498" lon="7.892650">
        <ele>370.783572</ele>
        <time>2021-11-07T14:38:10.271Z</time>
      </trkpt>
      <trkpt lat="47.527011" lon="7.893061">
        <ele>371.662058</ele>
        <time>2021-11-07T14:38:23.464Z</time>
      </trkpt>
      <trkpt lat="47.526709" lon="7.893617">
        <ele>372.995302</ele>
        <time>2021-11-07T14:38:35.996Z</time>
      </trkpt>
      <trkpt lat="47.526504" lon="7.894030">
        <ele>373.953033</ele>
        <time>2021-11-07T14:38:46.177Z</time>
      </trkpt>
      <trkpt lat="47.526451" lon="7.893983">
        <ele>374.123970</ele>
        <time>2021-11-07T14:38:47.566Z</time>
      </trkpt>
      <trkpt lat="47.526401" lon="7.893964">
        <ele>374.266806</ele>
        <time>2021-11-07T14:38:48.383Z</time>
      </trkpt>
      <trkpt lat="47.526335" lon="7.893960">
        <ele>374.449585</ele>
        <time>2021-11-07T14:38:50.457Z</time>
      </trkpt>
      <trkpt lat="47.526257" lon="7.894278">
        <ele>375.081743</ele>
        <time>2021-11-07T14:38:56.669Z</time>
      </trkpt>
      <trkpt lat="47.525725" lon="7.895110">
        <ele>376.919887</ele>
        <time>2021-11-07T14:39:15.750Z</time>
      </trkpt>
      <trkpt lat="47.525603" lon="7.895265">
        <ele>377.190577</ele>
        <time>2021-11-07T14:39:21.367Z</time>
      </trkpt>
      <trkpt lat="47.525631" lon="7.895442">
        <ele>377.397296</ele>
        <time>2021-11-07T14:39:24.217Z</time>
      </trkpt>
      <trkpt lat="47.525631" lon="7.895583">
        <ele>377.557630</ele>
        <time>2021-11-07T14:39:25.409Z</time>
      </trkpt>
      <trkpt lat="47.525622" lon="7.895944">
        <ele>377.968410</ele>
        <time>2021-11-07T14:39:32.844Z</time>
      </trkpt>
      <trkpt lat="47.525590" lon="7.896117">
        <ele>378.172379</ele>
        <time>2021-11-07T14:39:34.397Z</time>
      </trkpt>
      <trkpt lat="47.525518" lon="7.896336">
        <ele>378.449357</ele>
        <time>2021-11-07T14:39:39.204Z</time>
      </trkpt>
      <trkpt lat="47.524834" lon="7.897636">
        <ele>379.468894</ele>
        <time>2021-11-07T14:39:56.127Z</time>
      </trkpt>
      <trkpt lat="47.524617" lon="7.898216">
        <ele>379.460826</ele>
        <time>2021-11-07T14:40:02.301Z</time>
      </trkpt>
      <trkpt lat="47.524360" lon="7.898951">
        <ele>379.450755</ele>
        <time>2021-11-07T14:40:09.842Z</time>
      </trkpt>
      <trkpt lat="47.524309" lon="7.899115">
        <ele>379.448558</ele>
        <time>2021-11-07T14:40:11.755Z</time>
      </trkpt>
      <trkpt lat="47.523896" lon="7.900001">
        <ele>380.278048</ele>
        <time>2021-11-07T14:40:23.678Z</time>
      </trkpt>
      <trkpt lat="47.523861" lon="7.900049">
        <ele>380.349092</ele>
        <time>2021-11-07T14:40:24.657Z</time>
      </trkpt>
      <trkpt lat="47.523890" lon="7.900131">
        <ele>380.442182</ele>
        <time>2021-11-07T14:40:25.612Z</time>
      </trkpt>
      <trkpt lat="47.523945" lon="7.900256">
        <ele>380.592222</ele>
        <time>2021-11-07T14:40:27.203Z</time>
      </trkpt>
      <trkpt lat="47.523989" lon="7.900340">
        <ele>380.699133</ele>
        <time>2021-11-07T14:40:28.253Z</time>
      </trkpt>
      <trkpt lat="47.523957" lon="7.900371">
        <ele>380.756081</ele>
        <time>2021-11-07T14:40:28.958Z</time>
      </trkpt>
      <trkpt lat="47.523878" lon="7.900445">
        <ele>380.895294</ele>
        <time>2021-11-07T14:40:31.075Z</time>
      </trkpt>
      <trkpt lat="47.523739" lon="7.900557">
        <ele>381.130961</ele>
        <time>2021-11-07T14:40:34.006Z</time>
      </trkpt>
      <trkpt lat="47.523648" lon="7.900606">
        <ele>381.275165</ele>
        <time>2021-11-07T14:40:36.185Z</time>
      </trkpt>
      <trkpt lat="47.523620" lon="7.900698">
        <ele>381.376651</ele>
        <time>2021-11-07T14:40:38.149Z</time>
      </trkpt>
      <trkpt lat="47.523567" lon="7.900820">
        <ele>381.522540</ele>
        <time>2021-11-07T14:40:40.246Z</time>
      </trkpt>
      <trkpt lat="47.523433" lon="7.901043">
        <ele>381.822740</ele>
        <time>2021-11-07T14:40:45.490Z</time>
      </trkpt>
      <trkpt lat="47.523340" lon="7.901197">
        <ele>382.030512</ele>
        <time>2021-11-07T14:40:49.532Z</time>
      </trkpt>
      <trkpt lat="47.523036" lon="7.901580">
        <ele>383.493894</ele>
        <time>2021-11-07T14:41:01.228Z</time>
      </trkpt>
      <trkpt lat="47.522688" lon="7.901843">
        <ele>385.085468</ele>
        <time>2021-11-07T14:41:13.546Z</time>
      </trkpt>
      <trkpt lat="47.522554" lon="7.901999">
        <ele>385.779830</ele>
        <time>2021-11-07T14:41:19.867Z</time>
      </trkpt>
      <trkpt lat="47.522260" lon="7.902356">
        <ele>387.328656</ele>
        <time>2021-11-07T14:41:32.240Z</time>
      </trkpt>
      <trkpt lat="47.522132" lon="7.902476">
        <ele>387.945795</ele>
        <time>2021-11-07T14:41:36.798Z</time>
      </trkpt>
      <trkpt lat="47.522065" lon="7.902526">
        <ele>388.251430</ele>
        <time>2021-11-07T14:41:38.993Z</time>
      </trkpt>
      <trkpt lat="47.522038" lon="7.902562">
        <ele>388.399434</ele>
        <time>2021-11-07T14:41:40.497Z</time>
      </trkpt>
      <trkpt lat="47.522013" lon="7.902637">
        <ele>388.629522</ele>
        <time>2021-11-07T14:41:42.630Z</time>
      </trkpt>
      <trkpt lat="47.521792" lon="7.903347">
        <ele>390.463481</ele>
        <time>2021-11-07T14:41:58.698Z</time>
      </trkpt>
      <trkpt lat="47.521297" lon="7.904312">
        <ele>393.002693</ele>
        <time>2021-11-07T14:42:22.700Z</time>
      </trkpt>
      <trkpt lat="47.520989" lon="7.905130">
        <ele>394.965139</ele>
        <time>2021-11-07T14:42:38.115Z</time>
      </trkpt>
      <trkpt lat="47.520678" lon="7.906050">
        <ele>395.497233</ele>
        <time>2021-11-07T14:42:51.585Z</time>
      </trkpt>
      <trkpt lat="47.520566" lon="7.906668">
        <ele>395.795803</ele>
        <time>2021-11-07T14:42:58.605Z</time>
      </trkpt>
      <trkpt lat="47.520528" lon="7.906930">
        <ele>395.920843</ele>
        <time>2021-11-07T14:43:01.865Z</time>
      </trkpt>
      <trkpt lat="47.520515" lon="7.907103">
        <ele>396.002065</ele>
        <time>2021-11-07T14:43:03.663Z</time>
      </trkpt>
      <trkpt lat="47.520506" lon="7.907236">
        <ele>396.064436</ele>
        <time>2021-11-07T14:43:04.739Z</time>
      </trkpt>
      <trkpt lat="47.520551" lon="7.907422">
        <ele>396.156627</ele>
        <time>2021-11-07T14:43:07.149Z</time>
      </trkpt>
      <trkpt lat="47.520733" lon="7.907655">
        <ele>396.285556</ele>
        <time>2021-11-07T14:43:10.336Z</time>
      </trkpt>
      <trkpt lat="47.520738" lon="7.907839">
        <ele>396.304727</ele>
        <time>2021-11-07T14:43:12.478Z</time>
      </trkpt>
      <trkpt lat="47.520493" lon="7.908683">
        <ele>396.400364</ele>
        <time>2021-11-07T14:43:20.658Z</time>
      </trkpt>
      <trkpt lat="47.519997" lon="7.910833">
        <ele>397.090886</ele>
        <time>2021-11-07T14:43:46.604Z</time>
      </trkpt>
      <trkpt lat="47.519891" lon="7.911129">
        <ele>397.312552</ele>
        <time>2021-11-07T14:43:51.194Z</time>
      </trkpt>
      <trkpt lat="47.519720" lon="7.911522">
        <ele>397.621859</ele>
        <time>2021-11-07T14:43:57.279Z</time>
      </trkpt>
      <trkpt lat="47.519421" lon="7.912098">
        <ele>398.102518</ele>
        <time>2021-11-07T14:44:06.845Z</time>
      </trkpt>
      <trkpt lat="47.517688" lon="7.914418">
        <ele>400.559583</ele>
        <time>2021-11-07T14:44:51.423Z</time>
      </trkpt>
      <trkpt lat="47.517281" lon="7.915238">
        <ele>401.218848</ele>
        <time>2021-11-07T14:45:04.437Z</time>
      </trkpt>
      <trkpt lat="47.517140" lon="7.915259">
        <ele>401.354784</ele>
        <time>2021-11-07T14:45:06.938Z</time>
      </trkpt>
      <trkpt lat="47.516806" lon="7.914896">
        <ele>401.752218</ele>
        <time>2021-11-07T14:45:14.513Z</time>
      </trkpt>
      <trkpt lat="47.516748" lon="7.914873">
        <ele>401.809815</ele>
        <time>2021-11-07T14:45:15.684Z</time>
      </trkpt>
      <trkpt lat="47.516662" lon="7.914835">
        <ele>401.895906</ele>
        <time>2021-11-07T14:45:17.475Z</time>
      </trkpt>
      <trkpt lat="47.516626" lon="7.914830">
        <ele>401.930590</ele>
        <time>2021-11-07T14:45:18.170Z</time>
      </trkpt>
      <trkpt lat="47.516590" lon="7.914840">
        <ele>401.965726</ele>
        <time>2021-11-07T14:45:18.766Z</time>
      </trkpt>
      <trkpt lat="47.516569" lon="7.914864">
        <ele>401.990246</ele>
        <time>2021-11-07T14:45:19.300Z</time>
      </trkpt>
      <trkpt lat="47.516544" lon="7.914936">
        <ele>402.039390</ele>
        <time>2021-11-07T14:45:20.147Z</time>
      </trkpt>
      <trkpt lat="47.516391" lon="7.915243">
        <ele>402.270992</ele>
        <time>2021-11-07T14:45:24.940Z</time>
      </trkpt>
      <trkpt lat="47.515014" lon="7.917030">
        <ele>404.070815</ele>
        <time>2021-11-07T14:45:58.716Z</time>
      </trkpt>
      <trkpt lat="47.514635" lon="7.917349">
        <ele>404.649183</ele>
        <time>2021-11-07T14:46:06.835Z</time>
      </trkpt>
      <trkpt lat="47.514561" lon="7.917409">
        <ele>404.761113</ele>
        <time>2021-11-07T14:46:08.727Z</time>
      </trkpt>
      <trkpt lat="47.514255" lon="7.917714">
        <ele>405.250487</ele>
        <time>2021-11-07T14:46:16.196Z</time>
      </trkpt>
      <trkpt lat="47.513378" lon="7.918393">
        <ele>407.040784</ele>
        <time>2021-11-07T14:46:37.922Z</time>
      </trkpt>
      <trkpt lat="47.513160" lon="7.918764">
        <ele>407.841464</ele>
        <time>2021-11-07T14:46:45.424Z</time>
      </trkpt>
      <trkpt lat="47.513058" lon="7.918896">
        <ele>408.168047</ele>
        <time>2021-11-07T14:46:48.579Z</time>
      </trkpt>
      <trkpt lat="47.512938" lon="7.919052">
        <ele>408.553020</ele>
        <time>2021-11-07T14:46:52.359Z</time>
      </trkpt>
      <trkpt lat="47.512664" lon="7.919306">
        <ele>409.332344</ele>
        <time>2021-11-07T14:47:00.582Z</time>
      </trkpt>
      <trkpt lat="47.512255" lon="7.919538">
        <ele>410.418716</ele>
        <time>2021-11-07T14:47:12.507Z</time>
      </trkpt>
      <trkpt lat="47.512085" lon="7.919732">
        <ele>411.152516</ele>
        <time>2021-11-07T14:47:18.716Z</time>
      </trkpt>
      <trkpt lat="47.511964" lon="7.919989">
        <ele>411.875918</ele>
        <time>2021-11-07T14:47:25.196Z</time>
      </trkpt>
      <trkpt lat="47.511883" lon="7.920133">
        <ele>412.308646</ele>
        <time>2021-11-07T14:47:29.210Z</time>
      </trkpt>
      <trkpt lat="47.511632" lon="7.920105">
        <ele>413.169189</ele>
        <time>2021-11-07T14:47:38.191Z</time>
      </trkpt>
      <trkpt lat="47.511375" lon="7.920079">
        <ele>414.049861</ele>
        <time>2021-11-07T14:47:46.687Z</time>
      </trkpt>
      <trkpt lat="47.510704" lon="7.919944">
        <ele>416.364939</ele>
        <time>2021-11-07T14:48:09.195Z</time>
      </trkpt>
      <trkpt lat="47.510627" lon="7.919935">
        <ele>416.644560</ele>
        <time>2021-11-07T14:48:11.531Z</time>
      </trkpt>
      <trkpt lat="47.510551" lon="7.919925">
        <ele>416.930063</ele>
        <time>2021-11-07T14:48:14.641Z</time>
      </trkpt>
      <trkpt lat="47.509902" lon="7.920009">
        <ele>419.367798</ele>
        <time>2021-11-07T14:48:35.238Z</time>
      </trkpt>
      <trkpt lat="47.509811" lon="7.920040">
        <ele>419.717206</ele>
        <time>2021-11-07T14:48:39.222Z</time>
      </trkpt>
      <trkpt lat="47.509809" lon="7.920155">
        <ele>420.007964</ele>
        <time>2021-11-07T14:48:40.816Z</time>
      </trkpt>
      <trkpt lat="47.509746" lon="7.920320">
        <ele>420.487018</ele>
        <time>2021-11-07T14:48:44.056Z</time>
      </trkpt>
      <trkpt lat="47.509586" lon="7.920497">
        <ele>421.234399</ele>
        <time>2021-11-07T14:48:52.434Z</time>
      </trkpt>
      <trkpt lat="47.509370" lon="7.920707">
        <ele>422.201343</ele>
        <time>2021-11-07T14:49:00.742Z</time>
      </trkpt>
      <trkpt lat="47.509138" lon="7.920939">
        <ele>423.260369</ele>
        <time>2021-11-07T14:49:09.704Z</time>
      </trkpt>
      <trkpt lat="47.508613" lon="7.921495">
        <ele>426.184238</ele>
        <time>2021-11-07T14:49:29.284Z</time>
      </trkpt>
      <trkpt lat="47.508585" lon="7.921587">
        <ele>426.492979</ele>
        <time>2021-11-07T14:49:30.216Z</time>
      </trkpt>
      <trkpt lat="47.508464" lon="7.921688">
        <ele>427.122177</ele>
        <time>2021-11-07T14:49:36.522Z</time>
      </trkpt>
      <trkpt lat="47.508248" lon="7.921916">
        <ele>428.323803</ele>
        <time>2021-11-07T14:49:44.108Z</time>
      </trkpt>
      <trkpt lat="47.508175" lon="7.922172">
        <ele>429.174014</ele>
        <time>2021-11-07T14:49:50.668Z</time>
      </trkpt>
      <trkpt lat="47.508171" lon="7.922196">
        <ele>429.249649</ele>
        <time>2021-11-07T14:49:52.507Z</time>
      </trkpt>
      <trkpt lat="47.508141" lon="7.922350">
        <ele>429.740042</ele>
        <time>2021-11-07T14:49:55.079Z</time>
      </trkpt>
      <trkpt lat="47.508128" lon="7.922441">
        <ele>430.024632</ele>
        <time>2021-11-07T14:49:57.875Z</time>
      </trkpt>
      <trkpt lat="47.508064" lon="7.922687">
        <ele>430.831210</ele>
        <time>2021-11-07T14:50:04.384Z</time>
      </trkpt>
      <trkpt lat="47.507981" lon="7.923001">
        <ele>431.545179</ele>
        <time>2021-11-07T14:50:12.698Z</time>
      </trkpt>
      <trkpt lat="47.507956" lon="7.923075">
        <ele>431.643982</ele>
        <time>2021-11-07T14:50:14.689Z</time>
      </trkpt>
      <trkpt lat="47.507876" lon="7.923234">
        <ele>431.880735</ele>
        <time>2021-11-07T14:50:19.014Z</time>
      </trkpt>
      <trkpt lat="47.507823" lon="7.923307">
        <ele>432.008711</ele>
        <time>2021-11-07T14:50:20.748Z</time>
      </trkpt>
      <trkpt lat="47.507715" lon="7.923412">
        <ele>432.237128</ele>
        <time>2021-11-07T14:50:25.464Z</time>
      </trkpt>
      <trkpt lat="47.507337" lon="7.923777">
        <ele>433.034955</ele>
        <time>2021-11-07T14:50:33.838Z</time>
      </trkpt>
      <trkpt lat="47.507226" lon="7.923898">
        <ele>433.278644</ele>
        <time>2021-11-07T14:50:37.430Z</time>
      </trkpt>
      <trkpt lat="47.507191" lon="7.924066">
        <ele>433.488589</ele>
        <time>2021-11-07T14:50:38.978Z</time>
      </trkpt>
      <trkpt lat="47.506562" lon="7.924949">
        <ele>434.101131</ele>
        <time>2021-11-07T14:50:51.877Z</time>
      </trkpt>
      <trkpt lat="47.506019" lon="7.926055">
        <ele>432.727036</ele>
        <time>2021-11-07T14:51:01.658Z</time>
      </trkpt>
      <trkpt lat="47.505768" lon="7.926636">
        <ele>432.033926</ele>
        <time>2021-11-07T14:51:06.738Z</time>
      </trkpt>
      <trkpt lat="47.505699" lon="7.926906">
        <ele>431.882286</ele>
        <time>2021-11-07T14:51:09.803Z</time>
      </trkpt>
      <trkpt lat="47.505690" lon="7.927200">
        <ele>431.989100</ele>
        <time>2021-11-07T14:51:11.957Z</time>
      </trkpt>
      <trkpt lat="47.505748" lon="7.927310">
        <ele>432.039745</ele>
        <time>2021-11-07T14:51:14.128Z</time>
      </trkpt>
      <trkpt lat="47.505858" lon="7.927551">
        <ele>432.145309</ele>
        <time>2021-11-07T14:51:16.892Z</time>
      </trkpt>
      <trkpt lat="47.505881" lon="7.927601">
        <ele>432.167264</ele>
        <time>2021-11-07T14:51:17.889Z</time>
      </trkpt>
      <trkpt lat="47.505868" lon="7.927611">
        <ele>432.175135</ele>
        <time>2021-11-07T14:51:18.117Z</time>
      </trkpt>
      <trkpt lat="47.505814" lon="7.927657">
        <ele>432.208609</ele>
        <time>2021-11-07T14:51:19.978Z</time>
      </trkpt>
      <trkpt lat="47.505253" lon="7.928170">
        <ele>432.562891</ele>
        <time>2021-11-07T14:51:31.798Z</time>
      </trkpt>
      <trkpt lat="47.504799" lon="7.928777">
        <ele>432.991223</ele>
        <time>2021-11-07T14:51:42.457Z</time>
      </trkpt>
      <trkpt lat="47.504724" lon="7.928871">
        <ele>433.110067</ele>
        <time>2021-11-07T14:51:46.094Z</time>
      </trkpt>
      <trkpt lat="47.504650" lon="7.928941">
        <ele>433.216270</ele>
        <time>2021-11-07T14:51:48.627Z</time>
      </trkpt>
      <trkpt lat="47.504005" lon="7.929312">
        <ele>434.053112</ele>
        <time>2021-11-07T14:52:03.068Z</time>
      </trkpt>
      <trkpt lat="47.503815" lon="7.929426">
        <ele>434.301044</ele>
        <time>2021-11-07T14:52:06.027Z</time>
      </trkpt>
      <trkpt lat="47.503598" lon="7.929585">
        <ele>434.593860</ele>
        <time>2021-11-07T14:52:11.304Z</time>
      </trkpt>
      <trkpt lat="47.503528" lon="7.929650">
        <ele>434.693791</ele>
        <time>2021-11-07T14:52:12.375Z</time>
      </trkpt>
      <trkpt lat="47.503485" lon="7.929688">
        <ele>434.754355</ele>
        <time>2021-11-07T14:52:13.887Z</time>
      </trkpt>
      <trkpt lat="47.503014" lon="7.930220">
        <ele>435.305322</ele>
        <time>2021-11-07T14:52:23.799Z</time>
      </trkpt>
      <trkpt lat="47.502761" lon="7.930610">
        <ele>435.595917</ele>
        <time>2021-11-07T14:52:30.153Z</time>
      </trkpt>
      <trkpt lat="47.502613" lon="7.930856">
        <ele>435.772957</ele>
        <time>2021-11-07T14:52:33.950Z</time>
      </trkpt>
      <trkpt lat="47.502400" lon="7.931256">
        <ele>436.046692</ele>
        <time>2021-11-07T14:52:40.754Z</time>
      </trkpt>
      <trkpt lat="47.502023" lon="7.932158">
        <ele>436.570609</ele>
        <time>2021-11-07T14:52:53.741Z</time>
      </trkpt>
      <trkpt lat="47.501901" lon="7.932351">
        <ele>436.679683</ele>
        <time>2021-11-07T14:52:57.499Z</time>
      </trkpt>
      <trkpt lat="47.501794" lon="7.932466">
        <ele>436.760455</ele>
        <time>2021-11-07T14:52:59.378Z</time>
      </trkpt>
      <trkpt lat="47.501463" lon="7.932668">
        <ele>436.979154</ele>
        <time>2021-11-07T14:53:05.518Z</time>
      </trkpt>
      <trkpt lat="47.501075" lon="7.932885">
        <ele>437.232516</ele>
        <time>2021-11-07T14:53:13.057Z</time>
      </trkpt>
      <trkpt lat="47.500990" lon="7.932950">
        <ele>437.290957</ele>
        <time>2021-11-07T14:53:14.875Z</time>
      </trkpt>
      <trkpt lat="47.500843" lon="7.933102">
        <ele>437.400491</ele>
        <time>2021-11-07T14:53:17.754Z</time>
      </trkpt>
      <trkpt lat="47.500435" lon="7.933872">
        <ele>437.825882</ele>
        <time>2021-11-07T14:53:27.585Z</time>
      </trkpt>
      <trkpt lat="47.500386" lon="7.933937">
        <ele>437.869086</ele>
        <time>2021-11-07T14:53:28.444Z</time>
      </trkpt>
      <trkpt lat="47.500352" lon="7.933976">
        <ele>437.897330</ele>
        <time>2021-11-07T14:53:29.206Z</time>
      </trkpt>
      <trkpt lat="47.500275" lon="7.934029">
        <ele>437.953089</ele>
        <time>2021-11-07T14:53:30.314Z</time>
      </trkpt>
      <trkpt lat="47.500208" lon="7.934071">
        <ele>438.000866</ele>
        <time>2021-11-07T14:53:31.547Z</time>
      </trkpt>
      <trkpt lat="47.500193" lon="7.934023">
        <ele>438.024326</ele>
        <time>2021-11-07T14:53:32.026Z</time>
      </trkpt>
      <trkpt lat="47.500169" lon="7.933984">
        <ele>438.047728</ele>
        <time>2021-11-07T14:53:32.459Z</time>
      </trkpt>
      <trkpt lat="47.500138" lon="7.933956">
        <ele>438.071574</ele>
        <time>2021-11-07T14:53:33.003Z</time>
      </trkpt>
      <trkpt lat="47.500067" lon="7.933946">
        <ele>438.118405</ele>
        <time>2021-11-07T14:53:33.951Z</time>
      </trkpt>
      <trkpt lat="47.500034" lon="7.933965">
        <ele>438.141655</ele>
        <time>2021-11-07T14:53:34.770Z</time>
      </trkpt>
      <trkpt lat="47.499993" lon="7.933864">
        <ele>438.193925</ele>
        <time>2021-11-07T14:53:36.312Z</time>
      </trkpt>
      <trkpt lat="47.499822" lon="7.933272">
        <ele>438.479537</ele>
        <time>2021-11-07T14:53:44.292Z</time>
      </trkpt>
      <trkpt lat="47.499538" lon="7.932868">
        <ele>438.802527</ele>
        <time>2021-11-07T14:53:52.274Z</time>
      </trkpt>
      <trkpt lat="47.499421" lon="7.932805">
        <ele>439.014386</ele>
        <time>2021-11-07T14:53:55.328Z</time>
      </trkpt>
      <trkpt lat="47.499354" lon="7.932769">
        <ele>439.135677</ele>
        <time>2021-11-07T14:53:57.055Z</time>
      </trkpt>
      <trkpt lat="47.499088" lon="7.932741">
        <ele>439.589462</ele>
        <time>2021-11-07T14:54:02.932Z</time>
      </trkpt>
      <trkpt lat="47.498997" lon="7.932758">
        <ele>439.745542</ele>
        <time>2021-11-07T14:54:04.970Z</time>
      </trkpt>
      <trkpt lat="47.498925" lon="7.932781">
        <ele>439.870882</ele>
        <time>2021-11-07T14:54:06.677Z</time>
      </trkpt>
      <trkpt lat="47.498481" lon="7.933011">
        <ele>440.671355</ele>
        <time>2021-11-07T14:54:15.931Z</time>
      </trkpt>
      <trkpt lat="47.498431" lon="7.932995">
        <ele>440.758403</ele>
        <time>2021-11-07T14:54:17.153Z</time>
      </trkpt>
      <trkpt lat="47.498391" lon="7.932972">
        <ele>440.831425</ele>
        <time>2021-11-07T14:54:18.072Z</time>
      </trkpt>
      <trkpt lat="47.498196" lon="7.932613">
        <ele>441.361003</ele>
        <time>2021-11-07T14:54:24.796Z</time>
      </trkpt>
      <trkpt lat="47.498138" lon="7.932522">
        <ele>441.504830</ele>
        <time>2021-11-07T14:54:26.796Z</time>
      </trkpt>
      <trkpt lat="47.498068" lon="7.932426">
        <ele>441.667218</ele>
        <time>2021-11-07T14:54:29.243Z</time>
      </trkpt>
      <trkpt lat="47.497907" lon="7.932254">
        <ele>441.998105</ele>
        <time>2021-11-07T14:54:33.945Z</time>
      </trkpt>
      <trkpt lat="47.497676" lon="7.932013">
        <ele>442.465396</ele>
        <time>2021-11-07T14:54:40.424Z</time>
      </trkpt>
      <trkpt lat="47.497430" lon="7.931757">
        <ele>442.962614</ele>
        <time>2021-11-07T14:54:48.015Z</time>
      </trkpt>
      <trkpt lat="47.497221" lon="7.931528">
        <ele>443.392567</ele>
        <time>2021-11-07T14:54:54.012Z</time>
      </trkpt>
      <trkpt lat="47.497104" lon="7.931414">
        <ele>443.624175</ele>
        <time>2021-11-07T14:54:56.810Z</time>
      </trkpt>
      <trkpt lat="47.496998" lon="7.931330">
        <ele>443.822979</ele>
        <time>2021-11-07T14:54:59.221Z</time>
      </trkpt>
      <trkpt lat="47.496424" lon="7.931075">
        <ele>444.824138</ele>
        <time>2021-11-07T14:55:09.970Z</time>
      </trkpt>
      <trkpt lat="47.496205" lon="7.930904">
        <ele>445.285050</ele>
        <time>2021-11-07T14:55:13.990Z</time>
      </trkpt>
      <trkpt lat="47.496162" lon="7.930842">
        <ele>445.396796</ele>
        <time>2021-11-07T14:55:15.555Z</time>
      </trkpt>
      <trkpt lat="47.496117" lon="7.930763">
        <ele>445.526752</ele>
        <time>2021-11-07T14:55:16.823Z</time>
      </trkpt>
      <trkpt lat="47.496051" lon="7.930607">
        <ele>445.758242</ele>
        <time>2021-11-07T14:55:19.605Z</time>
      </trkpt>
      <trkpt lat="47.495985" lon="7.930428">
        <ele>446.014709</ele>
        <time>2021-11-07T14:55:22.437Z</time>
      </trkpt>
      <trkpt lat="47.495801" lon="7.929891">
        <ele>446.771973</ele>
        <time>2021-11-07T14:55:32.095Z</time>
      </trkpt>
      <trkpt lat="47.495622" lon="7.929400">
        <ele>447.473659</ele>
        <time>2021-11-07T14:55:40.708Z</time>
      </trkpt>
      <trkpt lat="47.495562" lon="7.929221">
        <ele>447.724968</ele>
        <time>2021-11-07T14:55:43.667Z</time>
      </trkpt>
      <trkpt lat="47.495530" lon="7.929063">
        <ele>447.932420</ele>
        <time>2021-11-07T14:55:46.142Z</time>
      </trkpt>
      <trkpt lat="47.495455" lon="7.928595">
        <ele>448.946576</ele>
        <time>2021-11-07T14:55:54.969Z</time>
      </trkpt>
      <trkpt lat="47.495268" lon="7.927740">
        <ele>451.089257</ele>
        <time>2021-11-07T14:56:11.978Z</time>
      </trkpt>
      <trkpt lat="47.495031" lon="7.927006">
        <ele>453.028875</ele>
        <time>2021-11-07T14:56:28.880Z</time>
      </trkpt>
      <trkpt lat="47.494945" lon="7.926765">
        <ele>453.678702</ele>
        <time>2021-11-07T14:56:35.523Z</time>
      </trkpt>
      <trkpt lat="47.494515" lon="7.925509">
        <ele>457.117562</ele>
        <time>2021-11-07T14:57:03.942Z</time>
      </trkpt>
      <trkpt lat="47.494438" lon="7.925289">
        <ele>457.726812</ele>
        <time>2021-11-07T14:57:09.376Z</time>
      </trkpt>
      <trkpt lat="47.494034" lon="7.924101">
        <ele>460.996325</ele>
        <time>2021-11-07T14:57:34.439Z</time>
      </trkpt>
      <trkpt lat="47.493708" lon="7.923049">
        <ele>463.731990</ele>
        <time>2021-11-07T14:57:56.011Z</time>
      </trkpt>
      <trkpt lat="47.493397" lon="7.921760">
        <ele>466.967241</ele>
        <time>2021-11-07T14:58:22.990Z</time>
      </trkpt>
      <trkpt lat="47.493307" lon="7.921373">
        <ele>468.135413</ele>
        <time>2021-11-07T14:58:31.484Z</time>
      </trkpt>
      <trkpt lat="47.493236" lon="7.921091">
        <ele>469.060229</ele>
        <time>2021-11-07T14:58:37.865Z</time>
      </trkpt>
      <trkpt lat="47.493132" lon="7.920716">
        <ele>470.305931</ele>
        <time>2021-11-07T14:58:46.915Z</time>
      </trkpt>
      <trkpt lat="47.492813" lon="7.919900">
        <ele>473.203046</ele>
        <time>2021-11-07T14:59:08.399Z</time>
      </trkpt>
      <trkpt lat="47.492584" lon="7.919482">
        <ele>474.856790</ele>
        <time>2021-11-07T14:59:21.171Z</time>
      </trkpt>
      <trkpt lat="47.492227" lon="7.918989">
        <ele>477.013947</ele>
        <time>2021-11-07T14:59:38.073Z</time>
      </trkpt>
      <trkpt lat="47.491324" lon="7.917985">
        <ele>481.950546</ele>
        <time>2021-11-07T15:00:14.857Z</time>
      </trkpt>
      <trkpt lat="47.490822" lon="7.917158">
        <ele>484.578621</ele>
        <time>2021-11-07T15:00:37.017Z</time>
      </trkpt>
      <trkpt lat="47.490607" lon="7.916690">
        <ele>485.681428</ele>
        <time>2021-11-07T15:00:47.215Z</time>
      </trkpt>
      <trkpt lat="47.490429" lon="7.916164">
        <ele>486.827806</ele>
        <time>2021-11-07T15:00:57.084Z</time>
      </trkpt>
      <trkpt lat="47.490283" lon="7.915612">
        <ele>487.982966</ele>
        <time>2021-11-07T15:01:06.913Z</time>
      </trkpt>
      <trkpt lat="47.489987" lon="7.914083">
        <ele>490.647616</ele>
        <time>2021-11-07T15:01:32.693Z</time>
      </trkpt>
      <trkpt lat="47.489951" lon="7.913893">
        <ele>490.967534</ele>
        <time>2021-11-07T15:01:35.687Z</time>
      </trkpt>
      <trkpt lat="47.489922" lon="7.913738">
        <ele>491.228282</ele>
        <time>2021-11-07T15:01:38.192Z</time>
      </trkpt>
      <trkpt lat="47.489843" lon="7.913398">
        <ele>491.811186</ele>
        <time>2021-11-07T15:01:43.539Z</time>
      </trkpt>
      <trkpt lat="47.489607" lon="7.912646">
        <ele>493.355901</ele>
        <time>2021-11-07T15:01:57.767Z</time>
      </trkpt>
      <trkpt lat="47.489216" lon="7.911685">
        <ele>496.231283</ele>
        <time>2021-11-07T15:02:20.082Z</time>
      </trkpt>
      <trkpt lat="47.489040" lon="7.911300">
        <ele>497.422770</ele>
        <time>2021-11-07T15:02:29.548Z</time>
      </trkpt>
      <trkpt lat="47.488908" lon="7.911009">
        <ele>498.321171</ele>
        <time>2021-11-07T15:02:38.109Z</time>
      </trkpt>
      <trkpt lat="47.488699" lon="7.910498">
        <ele>499.839997</ele>
        <time>2021-11-07T15:02:51.772Z</time>
      </trkpt>
      <trkpt lat="47.488366" lon="7.909318">
        <ele>502.934099</ele>
        <time>2021-11-07T15:03:17.645Z</time>
      </trkpt>
      <trkpt lat="47.488241" lon="7.908835">
        <ele>504.185548</ele>
        <time>2021-11-07T15:03:26.832Z</time>
      </trkpt>
      <trkpt lat="47.488185" lon="7.908663">
        <ele>504.647508</ele>
        <time>2021-11-07T15:03:30.883Z</time>
      </trkpt>
      <trkpt lat="47.488080" lon="7.908344">
        <ele>505.506064</ele>
        <time>2021-11-07T15:03:36.844Z</time>
      </trkpt>
      <trkpt lat="47.487763" lon="7.907711">
        <ele>507.362481</ele>
        <time>2021-11-07T15:03:51.902Z</time>
      </trkpt>
      <trkpt lat="47.487587" lon="7.907459">
        <ele>508.206652</ele>
        <time>2021-11-07T15:03:58.361Z</time>
      </trkpt>
      <trkpt lat="47.487378" lon="7.907191">
        <ele>509.159928</ele>
        <time>2021-11-07T15:04:05.560Z</time>
      </trkpt>
      <trkpt lat="47.487197" lon="7.906946">
        <ele>510.005483</ele>
        <time>2021-11-07T15:04:11.701Z</time>
      </trkpt>
      <trkpt lat="47.486969" lon="7.906583">
        <ele>511.159890</ele>
        <time>2021-11-07T15:04:20.010Z</time>
      </trkpt>
      <trkpt lat="47.486769" lon="7.905976">
        <ele>513.065805</ele>
        <time>2021-11-07T15:04:36.039Z</time>
      </trkpt>
      <trkpt lat="47.486724" lon="7.905485">
        <ele>515.056653</ele>
        <time>2021-11-07T15:04:48.711Z</time>
      </trkpt>
      <trkpt lat="47.486755" lon="7.904487">
        <ele>519.070749</ele>
        <time>2021-11-07T15:05:15.021Z</time>
      </trkpt>
      <trkpt lat="47.486721" lon="7.904326">
        <ele>519.748482</ele>
        <time>2021-11-07T15:05:19.849Z</time>
      </trkpt>
      <trkpt lat="47.486688" lon="7.904238">
        <ele>520.152850</ele>
        <time>2021-11-07T15:05:22.892Z</time>
      </trkpt>
      <trkpt lat="47.486480" lon="7.904016">
        <ele>521.677672</ele>
        <time>2021-11-07T15:05:32.987Z</time>
      </trkpt>
      <trkpt lat="47.486247" lon="7.904043">
        <ele>523.044844</ele>
        <time>2021-11-07T15:05:42.858Z</time>
      </trkpt>
      <trkpt lat="47.486049" lon="7.904262">
        <ele>524.182548</ele>
        <time>2021-11-07T15:05:54.187Z</time>
      </trkpt>
      <trkpt lat="47.485623" lon="7.905088">
        <ele>527.414259</ele>
        <time>2021-11-07T15:06:21.517Z</time>
      </trkpt>
      <trkpt lat="47.485623" lon="7.905088">
        <ele>527.414259</ele>
        <time>2021-11-07T15:06:21.563Z</time>
      </trkpt>
      <trkpt lat="47.485623" lon="7.905088">
        <ele>527.414259</ele>
        <time>2021-11-07T15:06:21.563Z</time>
      </trkpt>
      <trkpt lat="47.484814" lon="7.905204">
        <ele>531.155064</ele>
        <time>2021-11-07T15:06:36.633Z</time>
      </trkpt>
      <trkpt lat="47.484713" lon="7.905133">
        <ele>531.024435</ele>
        <time>2021-11-07T15:06:38.137Z</time>
      </trkpt>
      <trkpt lat="47.484481" lon="7.904947">
        <ele>530.388784</ele>
        <time>2021-11-07T15:06:42.619Z</time>
      </trkpt>
      <trkpt lat="47.484248" lon="7.904856">
        <ele>529.808261</ele>
        <time>2021-11-07T15:06:45.301Z</time>
      </trkpt>
      <trkpt lat="47.484124" lon="7.904824">
        <ele>529.505034</ele>
        <time>2021-11-07T15:06:47.994Z</time>
      </trkpt>
      <trkpt lat="47.484064" lon="7.904808">
        <ele>529.358164</ele>
        <time>2021-11-07T15:06:48.684Z</time>
      </trkpt>
      <trkpt lat="47.484005" lon="7.904793">
        <ele>529.213949</ele>
        <time>2021-11-07T15:06:49.237Z</time>
      </trkpt>
      <trkpt lat="47.483385" lon="7.904708">
        <ele>527.713961</ele>
        <time>2021-11-07T15:06:55.598Z</time>
      </trkpt>
      <trkpt lat="47.483329" lon="7.904705">
        <ele>527.578967</ele>
        <time>2021-11-07T15:06:56.106Z</time>
      </trkpt>
      <trkpt lat="47.483101" lon="7.904680">
        <ele>527.028205</ele>
        <time>2021-11-07T15:06:58.235Z</time>
      </trkpt>
      <trkpt lat="47.482433" lon="7.904538">
        <ele>522.569538</ele>
        <time>2021-11-07T15:07:04.206Z</time>
      </trkpt>
      <trkpt lat="47.482157" lon="7.904346">
        <ele>520.457102</ele>
        <time>2021-11-07T15:07:06.920Z</time>
      </trkpt>
      <trkpt lat="47.481709" lon="7.903892">
        <ele>516.696057</ele>
        <time>2021-11-07T15:07:11.758Z</time>
      </trkpt>
      <trkpt lat="47.481588" lon="7.903776">
        <ele>515.697421</ele>
        <time>2021-11-07T15:07:13.044Z</time>
      </trkpt>
      <trkpt lat="47.481478" lon="7.903693">
        <ele>514.842163</ele>
        <time>2021-11-07T15:07:14.177Z</time>
      </trkpt>
      <trkpt lat="47.480980" lon="7.903461">
        <ele>511.923094</ele>
        <time>2021-11-07T15:07:19.007Z</time>
      </trkpt>
      <trkpt lat="47.478367" lon="7.903166">
        <ele>497.545533</ele>
        <time>2021-11-07T15:07:43.640Z</time>
      </trkpt>
      <trkpt lat="47.478182" lon="7.903109">
        <ele>496.497932</ele>
        <time>2021-11-07T15:07:45.383Z</time>
      </trkpt>
      <trkpt lat="47.478118" lon="7.903075">
        <ele>496.120952</ele>
        <time>2021-11-07T15:07:45.981Z</time>
      </trkpt>
      <trkpt lat="47.476982" lon="7.902234">
        <ele>488.267226</ele>
        <time>2021-11-07T15:07:57.475Z</time>
      </trkpt>
      <trkpt lat="47.476536" lon="7.901977">
        <ele>485.231725</ele>
        <time>2021-11-07T15:08:01.843Z</time>
      </trkpt>
      <trkpt lat="47.476364" lon="7.901870">
        <ele>484.048392</ele>
        <time>2021-11-07T15:08:03.538Z</time>
      </trkpt>
      <trkpt lat="47.475300" lon="7.901112">
        <ele>477.317083</ele>
        <time>2021-11-07T15:08:14.447Z</time>
      </trkpt>
      <trkpt lat="47.475163" lon="7.901034">
        <ele>476.490684</ele>
        <time>2021-11-07T15:08:15.773Z</time>
      </trkpt>
      <trkpt lat="47.474888" lon="7.900841">
        <ele>474.777176</ele>
        <time>2021-11-07T15:08:18.625Z</time>
      </trkpt>
      <trkpt lat="47.474617" lon="7.900560">
        <ele>472.953213</ele>
        <time>2021-11-07T15:08:21.755Z</time>
      </trkpt>
      <trkpt lat="47.474336" lon="7.900125">
        <ele>470.996677</ele>
        <time>2021-11-07T15:08:25.596Z</time>
      </trkpt>
      <trkpt lat="47.474186" lon="7.899915">
        <ele>470.003209</ele>
        <time>2021-11-07T15:08:27.531Z</time>
      </trkpt>
      <trkpt lat="47.474087" lon="7.899774">
        <ele>469.342131</ele>
        <time>2021-11-07T15:08:28.842Z</time>
      </trkpt>
      <trkpt lat="47.473931" lon="7.899567">
        <ele>468.334040</ele>
        <time>2021-11-07T15:08:30.802Z</time>
      </trkpt>
      <trkpt lat="47.473317" lon="7.898945">
        <ele>464.754196</ele>
        <time>2021-11-07T15:08:38.042Z</time>
      </trkpt>
      <trkpt lat="47.471910" lon="7.898392">
        <ele>457.226229</ele>
        <time>2021-11-07T15:08:51.636Z</time>
      </trkpt>
      <trkpt lat="47.471825" lon="7.898370">
        <ele>456.778990</ele>
        <time>2021-11-07T15:08:52.424Z</time>
      </trkpt>
      <trkpt lat="47.471597" lon="7.898344">
        <ele>455.593781</ele>
        <time>2021-11-07T15:08:54.576Z</time>
      </trkpt>
      <trkpt lat="47.471002" lon="7.898222">
        <ele>453.063122</ele>
        <time>2021-11-07T15:09:00.171Z</time>
      </trkpt>
      <trkpt lat="47.469999" lon="7.897879">
        <ele>448.867441</ele>
        <time>2021-11-07T15:09:10.171Z</time>
      </trkpt>
      <trkpt lat="47.469806" lon="7.897795">
        <ele>448.047503</ele>
        <time>2021-11-07T15:09:12.313Z</time>
      </trkpt>
      <trkpt lat="47.469534" lon="7.897638">
        <ele>447.617071</ele>
        <time>2021-11-07T15:09:15.531Z</time>
      </trkpt>
      <trkpt lat="47.469456" lon="7.897860">
        <ele>447.441253</ele>
        <time>2021-11-07T15:09:17.600Z</time>
      </trkpt>
      <trkpt lat="47.469155" lon="7.898409">
        <ele>446.944519</ele>
        <time>2021-11-07T15:09:23.104Z</time>
      </trkpt>
      <trkpt lat="47.469026" lon="7.898570">
        <ele>446.769066</ele>
        <time>2021-11-07T15:09:25.269Z</time>
      </trkpt>
      <trkpt lat="47.468974" lon="7.898632">
        <ele>446.699638</ele>
        <time>2021-11-07T15:09:26.204Z</time>
      </trkpt>
      <trkpt lat="47.468719" lon="7.898908">
        <ele>446.371175</ele>
        <time>2021-11-07T15:09:30.285Z</time>
      </trkpt>
      <trkpt lat="47.468595" lon="7.899046">
        <ele>446.209866</ele>
        <time>2021-11-07T15:09:32.427Z</time>
      </trkpt>
      <trkpt lat="47.468210" lon="7.899465">
        <ele>446.309038</ele>
        <time>2021-11-07T15:09:40.758Z</time>
      </trkpt>
      <trkpt lat="47.467978" lon="7.899694">
        <ele>446.606184</ele>
        <time>2021-11-07T15:09:45.495Z</time>
      </trkpt>
      <trkpt lat="47.467778" lon="7.899859">
        <ele>446.850162</ele>
        <time>2021-11-07T15:09:49.866Z</time>
      </trkpt>
      <trkpt lat="47.467497" lon="7.900103">
        <ele>447.197306</ele>
        <time>2021-11-07T15:09:55.960Z</time>
      </trkpt>
      <trkpt lat="47.467245" lon="7.900444">
        <ele>447.561173</ele>
        <time>2021-11-07T15:10:02.835Z</time>
      </trkpt>
      <trkpt lat="47.467108" lon="7.900644">
        <ele>447.766242</ele>
        <time>2021-11-07T15:10:06.921Z</time>
      </trkpt>
      <trkpt lat="47.466605" lon="7.901426">
        <ele>449.196028</ele>
        <time>2021-11-07T15:10:23.813Z</time>
      </trkpt>
      <trkpt lat="47.466371" lon="7.901784">
        <ele>449.932036</ele>
        <time>2021-11-07T15:10:31.943Z</time>
      </trkpt>
      <trkpt lat="47.465938" lon="7.902461">
        <ele>451.309509</ele>
        <time>2021-11-07T15:10:47.386Z</time>
      </trkpt>
      <trkpt lat="47.465643" lon="7.902890">
        <ele>452.192953</ele>
        <time>2021-11-07T15:10:57.393Z</time>
      </trkpt>
      <trkpt lat="47.465577" lon="7.902991">
        <ele>452.388389</ele>
        <time>2021-11-07T15:10:59.708Z</time>
      </trkpt>
      <trkpt lat="47.465231" lon="7.903593">
        <ele>453.487728</ele>
        <time>2021-11-07T15:11:11.815Z</time>
      </trkpt>
      <trkpt lat="47.463753" lon="7.907066">
        <ele>459.300517</ele>
        <time>2021-11-07T15:12:14.664Z</time>
      </trkpt>
      <trkpt lat="47.463375" lon="7.907958">
        <ele>461.127104</ele>
        <time>2021-11-07T15:12:34.284Z</time>
      </trkpt>
      <trkpt lat="47.463144" lon="7.908499">
        <ele>462.245908</ele>
        <time>2021-11-07T15:12:45.918Z</time>
      </trkpt>
      <trkpt lat="47.463026" lon="7.908779">
        <ele>462.822819</ele>
        <time>2021-11-07T15:12:52.309Z</time>
      </trkpt>
      <trkpt lat="47.461915" lon="7.911456">
        <ele>466.242018</ele>
        <time>2021-11-07T15:13:37.230Z</time>
      </trkpt>
      <trkpt lat="47.461598" lon="7.912222">
        <ele>466.966390</ele>
        <time>2021-11-07T15:13:45.913Z</time>
      </trkpt>
      <trkpt lat="47.461501" lon="7.912447">
        <ele>467.173985</ele>
        <time>2021-11-07T15:13:48.528Z</time>
      </trkpt>
      <trkpt lat="47.461343" lon="7.912835">
        <ele>467.526351</ele>
        <time>2021-11-07T15:13:54.047Z</time>
      </trkpt>
      <trkpt lat="47.461328" lon="7.912870">
        <ele>467.558589</ele>
        <time>2021-11-07T15:13:54.421Z</time>
      </trkpt>
      <trkpt lat="47.461271" lon="7.913000">
        <ele>467.679128</ele>
        <time>2021-11-07T15:13:56.553Z</time>
      </trkpt>
      <trkpt lat="47.461207" lon="7.913109">
        <ele>467.791438</ele>
        <time>2021-11-07T15:13:58.357Z</time>
      </trkpt>
      <trkpt lat="47.461143" lon="7.913171">
        <ele>467.879470</ele>
        <time>2021-11-07T15:13:59.738Z</time>
      </trkpt>
      <trkpt lat="47.461164" lon="7.913273">
        <ele>467.962418</ele>
        <time>2021-11-07T15:14:00.713Z</time>
      </trkpt>
      <trkpt lat="47.461278" lon="7.913570">
        <ele>468.228109</ele>
        <time>2021-11-07T15:14:05.950Z</time>
      </trkpt>
      <trkpt lat="47.461299" lon="7.913673">
        <ele>468.311801</ele>
        <time>2021-11-07T15:14:07.328Z</time>
      </trkpt>
      <trkpt lat="47.461281" lon="7.913929">
        <ele>468.562791</ele>
        <time>2021-11-07T15:14:12.004Z</time>
      </trkpt>
      <trkpt lat="47.461271" lon="7.914302">
        <ele>469.680616</ele>
        <time>2021-11-07T15:14:18.096Z</time>
      </trkpt>
      <trkpt lat="47.461285" lon="7.914482">
        <ele>470.223180</ele>
        <time>2021-11-07T15:14:22.280Z</time>
      </trkpt>
      <trkpt lat="47.461301" lon="7.914694">
        <ele>470.861956</ele>
        <time>2021-11-07T15:14:27.506Z</time>
      </trkpt>
      <trkpt lat="47.461318" lon="7.915056">
        <ele>471.948574</ele>
        <time>2021-11-07T15:14:35.223Z</time>
      </trkpt>
      <trkpt lat="47.461338" lon="7.915497">
        <ele>473.272113</ele>
        <time>2021-11-07T15:14:45.595Z</time>
      </trkpt>
      <trkpt lat="47.461330" lon="7.915634">
        <ele>473.683885</ele>
        <time>2021-11-07T15:14:48.974Z</time>
      </trkpt>
      <trkpt lat="47.461283" lon="7.915854">
        <ele>474.374781</ele>
        <time>2021-11-07T15:14:54.792Z</time>
      </trkpt>
      <trkpt lat="47.461188" lon="7.916015">
        <ele>475.014688</ele>
        <time>2021-11-07T15:15:00.139Z</time>
      </trkpt>
      <trkpt lat="47.460901" lon="7.916489">
        <ele>476.918463</ele>
        <time>2021-11-07T15:15:15.637Z</time>
      </trkpt>
      <trkpt lat="47.460876" lon="7.916582">
        <ele>477.217100</ele>
        <time>2021-11-07T15:15:18.954Z</time>
      </trkpt>
      <trkpt lat="47.460905" lon="7.916689">
        <ele>477.561079</ele>
        <time>2021-11-07T15:15:21.244Z</time>
      </trkpt>
      <trkpt lat="47.460987" lon="7.916828">
        <ele>478.111539</ele>
        <time>2021-11-07T15:15:25.099Z</time>
      </trkpt>
      <trkpt lat="47.461215" lon="7.917124">
        <ele>479.450457</ele>
        <time>2021-11-07T15:15:35.638Z</time>
      </trkpt>
      <trkpt lat="47.461435" lon="7.917389">
        <ele>480.702671</ele>
        <time>2021-11-07T15:15:45.852Z</time>
      </trkpt>
      <trkpt lat="47.461580" lon="7.917517">
        <ele>481.447936</ele>
        <time>2021-11-07T15:15:51.039Z</time>
      </trkpt>
      <trkpt lat="47.461669" lon="7.917595">
        <ele>481.904512</ele>
        <time>2021-11-07T15:15:54.653Z</time>
      </trkpt>
      <trkpt lat="47.462143" lon="7.918024">
        <ele>484.357071</ele>
        <time>2021-11-07T15:16:10.571Z</time>
      </trkpt>
      <trkpt lat="47.462363" lon="7.918249">
        <ele>485.220160</ele>
        <time>2021-11-07T15:16:17.575Z</time>
      </trkpt>
      <trkpt lat="47.462945" lon="7.918869">
        <ele>487.503269</ele>
        <time>2021-11-07T15:16:36.103Z</time>
      </trkpt>
      <trkpt lat="47.463461" lon="7.919439">
        <ele>489.553311</ele>
        <time>2021-11-07T15:16:54.107Z</time>
      </trkpt>
      <trkpt lat="47.463765" lon="7.919763">
        <ele>491.098161</ele>
        <time>2021-11-07T15:17:04.975Z</time>
      </trkpt>
      <trkpt lat="47.464024" lon="7.919978">
        <ele>492.579110</ele>
        <time>2021-11-07T15:17:13.762Z</time>
      </trkpt>
      <trkpt lat="47.464134" lon="7.920084">
        <ele>493.233740</ele>
        <time>2021-11-07T15:17:18.019Z</time>
      </trkpt>
      <trkpt lat="47.464357" lon="7.920402">
        <ele>494.778289</ele>
        <time>2021-11-07T15:17:28.095Z</time>
      </trkpt>
      <trkpt lat="47.464957" lon="7.921200">
        <ele>498.801665</ele>
        <time>2021-11-07T15:17:59.182Z</time>
      </trkpt>
      <trkpt lat="47.465510" lon="7.922001">
        <ele>503.871436</ele>
        <time>2021-11-07T15:18:31.804Z</time>
      </trkpt>
      <trkpt lat="47.465661" lon="7.922236">
        <ele>505.335138</ele>
        <time>2021-11-07T15:18:40.108Z</time>
      </trkpt>
      <trkpt lat="47.465674" lon="7.922268">
        <ele>505.503683</ele>
        <time>2021-11-07T15:18:42.390Z</time>
      </trkpt>
      <trkpt lat="47.465862" lon="7.922754">
        <ele>508.031577</ele>
        <time>2021-11-07T15:18:58.449Z</time>
      </trkpt>
      <trkpt lat="47.466243" lon="7.923649">
        <ele>512.409061</ele>
        <time>2021-11-07T15:19:28.004Z</time>
      </trkpt>
      <trkpt lat="47.466439" lon="7.924357">
        <ele>515.056422</ele>
        <time>2021-11-07T15:19:47.594Z</time>
      </trkpt>
      <trkpt lat="47.466944" lon="7.927647">
        <ele>526.361935</ele>
        <time>2021-11-07T15:21:00.520Z</time>
      </trkpt>
      <trkpt lat="47.466921" lon="7.927833">
        <ele>526.978654</ele>
        <time>2021-11-07T15:21:04.761Z</time>
      </trkpt>
      <trkpt lat="47.466887" lon="7.928012">
        <ele>527.585085</ele>
        <time>2021-11-07T15:21:10.319Z</time>
      </trkpt>
      <trkpt lat="47.466793" lon="7.929314">
        <ele>534.378985</ele>
        <time>2021-11-07T15:21:44.336Z</time>
      </trkpt>
      <trkpt lat="47.466726" lon="7.929710">
        <ele>536.882301</ele>
        <time>2021-11-07T15:21:57.026Z</time>
      </trkpt>
      <trkpt lat="47.466646" lon="7.930061">
        <ele>539.153807</ele>
        <time>2021-11-07T15:22:09.695Z</time>
      </trkpt>
      <trkpt lat="47.466575" lon="7.930358">
        <ele>541.085648</ele>
        <time>2021-11-07T15:22:20.621Z</time>
      </trkpt>
      <trkpt lat="47.466500" lon="7.930593">
        <ele>542.679284</ele>
        <time>2021-11-07T15:22:32.778Z</time>
      </trkpt>
      <trkpt lat="47.466307" lon="7.931138">
        <ele>547.603468</ele>
        <time>2021-11-07T15:23:00.055Z</time>
      </trkpt>
      <trkpt lat="47.466183" lon="7.931564">
        <ele>553.302399</ele>
        <time>2021-11-07T15:23:21.998Z</time>
      </trkpt>
      <trkpt lat="47.466006" lon="7.931849">
        <ele>558.057675</ele>
        <time>2021-11-07T15:23:43.158Z</time>
      </trkpt>
      <trkpt lat="47.465737" lon="7.932210">
        <ele>564.659205</ele>
        <time>2021-11-07T15:24:18.767Z</time>
      </trkpt>
      <trkpt lat="47.465665" lon="7.932336">
        <ele>566.686390</ele>
        <time>2021-11-07T15:24:30.686Z</time>
      </trkpt>
      <trkpt lat="47.465418" lon="7.932899">
        <ele>574.933217</ele>
        <time>2021-11-07T15:25:14.928Z</time>
      </trkpt>
      <trkpt lat="47.465232" lon="7.933199">
        <ele>579.594767</ele>
        <time>2021-11-07T15:25:42.243Z</time>
      </trkpt>
      <trkpt lat="47.465050" lon="7.933530">
        <ele>583.917246</ele>
        <time>2021-11-07T15:26:07.348Z</time>
      </trkpt>
      <trkpt lat="47.465012" lon="7.933701">
        <ele>585.740843</ele>
        <time>2021-11-07T15:26:20.328Z</time>
      </trkpt>
      <trkpt lat="47.464859" lon="7.934732">
        <ele>596.434627</ele>
        <time>2021-11-07T15:27:18.704Z</time>
      </trkpt>
      <trkpt lat="47.464825" lon="7.935465">
        <ele>603.878145</ele>
        <time>2021-11-07T15:27:49.098Z</time>
      </trkpt>
      <trkpt lat="47.464704" lon="7.936449">
        <ele>605.723335</ele>
        <time>2021-11-07T15:28:08.897Z</time>
      </trkpt>
      <trkpt lat="47.464590" lon="7.936822">
        <ele>606.076952</ele>
        <time>2021-11-07T15:28:12.440Z</time>
      </trkpt>
      <trkpt lat="47.464587" lon="7.937012">
        <ele>606.241130</ele>
        <time>2021-11-07T15:28:14.773Z</time>
      </trkpt>
      <trkpt lat="47.464629" lon="7.937113">
        <ele>606.343564</ele>
        <time>2021-11-07T15:28:16.207Z</time>
      </trkpt>
      <trkpt lat="47.464677" lon="7.937153">
        <ele>606.413963</ele>
        <time>2021-11-07T15:28:16.683Z</time>
      </trkpt>
      <trkpt lat="47.464942" lon="7.936904">
        <ele>606.815125</ele>
        <time>2021-11-07T15:28:20.752Z</time>
      </trkpt>
      <trkpt lat="47.465246" lon="7.936375">
        <ele>607.247644</ele>
        <time>2021-11-07T15:28:25.391Z</time>
      </trkpt>
      <trkpt lat="47.466275" lon="7.934206">
        <ele>608.259527</ele>
        <time>2021-11-07T15:28:50.096Z</time>
      </trkpt>
      <trkpt lat="47.466525" lon="7.933862">
        <ele>611.135724</ele>
        <time>2021-11-07T15:29:04.426Z</time>
      </trkpt>
      <trkpt lat="47.466714" lon="7.933768">
        <ele>612.815396</ele>
        <time>2021-11-07T15:29:14.328Z</time>
      </trkpt>
      <trkpt lat="47.467031" lon="7.933835">
        <ele>615.512848</ele>
        <time>2021-11-07T15:29:31.612Z</time>
      </trkpt>
      <trkpt lat="47.467421" lon="7.934263">
        <ele>619.603482</ele>
        <time>2021-11-07T15:30:00.150Z</time>
      </trkpt>
      <trkpt lat="47.467864" lon="7.935123">
        <ele>625.903531</ele>
        <time>2021-11-07T15:30:46.371Z</time>
      </trkpt>
      <trkpt lat="47.467994" lon="7.935499">
        <ele>628.410177</ele>
        <time>2021-11-07T15:31:03.723Z</time>
      </trkpt>
      <trkpt lat="47.468621" lon="7.938578">
        <ele>643.364379</ele>
        <time>2021-11-07T15:32:36.027Z</time>
      </trkpt>
      <trkpt lat="47.469024" lon="7.940035">
        <ele>647.364965</ele>
        <time>2021-11-07T15:33:01.004Z</time>
      </trkpt>
      <trkpt lat="47.469060" lon="7.940284">
        <ele>647.574524</ele>
        <time>2021-11-07T15:33:04.149Z</time>
      </trkpt>
      <trkpt lat="47.469067" lon="7.940555">
        <ele>647.797716</ele>
        <time>2021-11-07T15:33:08.136Z</time>
      </trkpt>
      <trkpt lat="47.469037" lon="7.942114">
        <ele>649.081273</ele>
        <time>2021-11-07T15:33:26.996Z</time>
      </trkpt>
      <trkpt lat="47.469044" lon="7.942317">
        <ele>649.197079</ele>
        <time>2021-11-07T15:33:29.540Z</time>
      </trkpt>
      <trkpt lat="47.469058" lon="7.942569">
        <ele>649.289436</ele>
        <time>2021-11-07T15:33:32.383Z</time>
      </trkpt>
      <trkpt lat="47.469215" lon="7.943133">
        <ele>649.512229</ele>
        <time>2021-11-07T15:33:40.365Z</time>
      </trkpt>
      <trkpt lat="47.469517" lon="7.943834">
        <ele>649.815857</ele>
        <time>2021-11-07T15:33:50.656Z</time>
      </trkpt>
      <trkpt lat="47.469843" lon="7.944430">
        <ele>650.095893</ele>
        <time>2021-11-07T15:33:59.037Z</time>
      </trkpt>
      <trkpt lat="47.470096" lon="7.944809">
        <ele>649.668722</ele>
        <time>2021-11-07T15:34:04.010Z</time>
      </trkpt>
      <trkpt lat="47.470904" lon="7.946018">
        <ele>647.914801</ele>
        <time>2021-11-07T15:34:17.434Z</time>
      </trkpt>
      <trkpt lat="47.471580" lon="7.947013">
        <ele>644.513089</ele>
        <time>2021-11-07T15:34:27.085Z</time>
      </trkpt>
      <trkpt lat="47.471655" lon="7.947281">
        <ele>643.583134</ele>
        <time>2021-11-07T15:34:28.933Z</time>
      </trkpt>
      <trkpt lat="47.471588" lon="7.947530">
        <ele>642.723896</ele>
        <time>2021-11-07T15:34:30.836Z</time>
      </trkpt>
      <trkpt lat="47.471526" lon="7.947625">
        <ele>642.300524</ele>
        <time>2021-11-07T15:34:31.658Z</time>
      </trkpt>
      <trkpt lat="47.471433" lon="7.947675">
        <ele>641.831197</ele>
        <time>2021-11-07T15:34:32.562Z</time>
      </trkpt>
      <trkpt lat="47.470644" lon="7.947609">
        <ele>637.260685</ele>
        <time>2021-11-07T15:34:39.800Z</time>
      </trkpt>
      <trkpt lat="47.470424" lon="7.947722">
        <ele>634.974833</ele>
        <time>2021-11-07T15:34:41.853Z</time>
      </trkpt>
      <trkpt lat="47.470368" lon="7.947828">
        <ele>634.082213</ele>
        <time>2021-11-07T15:34:42.649Z</time>
      </trkpt>
      <trkpt lat="47.470333" lon="7.948107">
        <ele>632.199451</ele>
        <time>2021-11-07T15:34:44.336Z</time>
      </trkpt>
      <trkpt lat="47.470426" lon="7.948527">
        <ele>629.267067</ele>
        <time>2021-11-07T15:34:46.913Z</time>
      </trkpt>
      <trkpt lat="47.470338" lon="7.948724">
        <ele>627.700365</ele>
        <time>2021-11-07T15:34:48.299Z</time>
      </trkpt>
      <trkpt lat="47.470241" lon="7.948800">
        <ele>626.622976</ele>
        <time>2021-11-07T15:34:49.244Z</time>
      </trkpt>
      <trkpt lat="47.470079" lon="7.948808">
        <ele>625.031988</ele>
        <time>2021-11-07T15:34:50.633Z</time>
      </trkpt>
      <trkpt lat="47.469762" lon="7.948654">
        <ele>621.757012</ele>
        <time>2021-11-07T15:34:53.449Z</time>
      </trkpt>
      <trkpt lat="47.469469" lon="7.948624">
        <ele>617.731712</ele>
        <time>2021-11-07T15:34:55.901Z</time>
      </trkpt>
      <trkpt lat="47.469180" lon="7.948713">
        <ele>613.409301</ele>
        <time>2021-11-07T15:34:58.355Z</time>
      </trkpt>
      <trkpt lat="47.468810" lon="7.949041">
        <ele>607.093267</ele>
        <time>2021-11-07T15:35:01.927Z</time>
      </trkpt>
      <trkpt lat="47.468558" lon="7.949650">
        <ele>600.025548</ele>
        <time>2021-11-07T15:35:05.932Z</time>
      </trkpt>
      <trkpt lat="47.468441" lon="7.950143">
        <ele>594.855071</ele>
        <time>2021-11-07T15:35:08.865Z</time>
      </trkpt>
      <trkpt lat="47.468300" lon="7.950849">
        <ele>588.989992</ele>
        <time>2021-11-07T15:35:13.015Z</time>
      </trkpt>
      <trkpt lat="47.468208" lon="7.951691">
        <ele>582.194659</ele>
        <time>2021-11-07T15:35:17.874Z</time>
      </trkpt>
      <trkpt lat="47.468258" lon="7.952349">
        <ele>576.919310</ele>
        <time>2021-11-07T15:35:21.720Z</time>
      </trkpt>
      <trkpt lat="47.468338" lon="7.952658">
        <ele>574.283114</ele>
        <time>2021-11-07T15:35:23.673Z</time>
      </trkpt>
      <trkpt lat="47.468688" lon="7.953623">
        <ele>568.687644</ele>
        <time>2021-11-07T15:35:30.227Z</time>
      </trkpt>
      <trkpt lat="47.468825" lon="7.953883">
        <ele>567.075425</ele>
        <time>2021-11-07T15:35:32.242Z</time>
      </trkpt>
      <trkpt lat="47.469129" lon="7.954175">
        <ele>564.453119</ele>
        <time>2021-11-07T15:35:35.537Z</time>
      </trkpt>
      <trkpt lat="47.469948" lon="7.954438">
        <ele>558.412088</ele>
        <time>2021-11-07T15:35:43.168Z</time>
      </trkpt>
      <trkpt lat="47.470173" lon="7.954771">
        <ele>556.132119</ele>
        <time>2021-11-07T15:35:46.024Z</time>
      </trkpt>
      <trkpt lat="47.470344" lon="7.955464">
        <ele>552.559714</ele>
        <time>2021-11-07T15:35:50.460Z</time>
      </trkpt>
      <trkpt lat="47.470551" lon="7.956984">
        <ele>544.882848</ele>
        <time>2021-11-07T15:35:59.815Z</time>
      </trkpt>
      <trkpt lat="47.470611" lon="7.957558">
        <ele>541.895633</ele>
        <time>2021-11-07T15:36:03.309Z</time>
      </trkpt>
      <trkpt lat="47.470622" lon="7.958630">
        <ele>536.381621</ele>
        <time>2021-11-07T15:36:09.743Z</time>
      </trkpt>
      <trkpt lat="47.470999" lon="7.960100">
        <ele>528.406647</ele>
        <time>2021-11-07T15:36:19.154Z</time>
      </trkpt>
      <trkpt lat="47.471231" lon="7.960809">
        <ele>524.433320</ele>
        <time>2021-11-07T15:36:23.888Z</time>
      </trkpt>
      <trkpt lat="47.471575" lon="7.961333">
        <ele>520.748793</ele>
        <time>2021-11-07T15:36:28.349Z</time>
      </trkpt>
      <trkpt lat="47.471579" lon="7.961404">
        <ele>520.478142</ele>
        <time>2021-11-07T15:36:28.748Z</time>
      </trkpt>
      <trkpt lat="47.471568" lon="7.961446">
        <ele>520.325939</ele>
        <time>2021-11-07T15:36:29.005Z</time>
      </trkpt>
      <trkpt lat="47.471484" lon="7.961507">
        <ele>519.858162</ele>
        <time>2021-11-07T15:36:29.909Z</time>
      </trkpt>
      <trkpt lat="47.471375" lon="7.961461">
        <ele>519.291535</ele>
        <time>2021-11-07T15:36:31.021Z</time>
      </trkpt>
      <trkpt lat="47.470924" lon="7.960881">
        <ele>516.304209</ele>
        <time>2021-11-07T15:36:36.461Z</time>
      </trkpt>
      <trkpt lat="47.470268" lon="7.959615">
        <ele>511.152791</ele>
        <time>2021-11-07T15:36:47.160Z</time>
      </trkpt>
      <trkpt lat="47.469974" lon="7.958722">
        <ele>508.861266</ele>
        <time>2021-11-07T15:36:54.082Z</time>
      </trkpt>
      <trkpt lat="47.469781" lon="7.958087">
        <ele>507.255031</ele>
        <time>2021-11-07T15:36:58.876Z</time>
      </trkpt>
      <trkpt lat="47.469604" lon="7.957623">
        <ele>506.025880</ele>
        <time>2021-11-07T15:37:02.427Z</time>
      </trkpt>
      <trkpt lat="47.469296" lon="7.957034">
        <ele>503.412702</ele>
        <time>2021-11-07T15:37:07.309Z</time>
      </trkpt>
      <trkpt lat="47.469049" lon="7.956742">
        <ele>501.542028</ele>
        <time>2021-11-07T15:37:10.384Z</time>
      </trkpt>
      <trkpt lat="47.468875" lon="7.956583">
        <ele>500.331996</ele>
        <time>2021-11-07T15:37:12.237Z</time>
      </trkpt>
      <trkpt lat="47.468475" lon="7.956375">
        <ele>497.823464</ele>
        <time>2021-11-07T15:37:16.044Z</time>
      </trkpt>
      <trkpt lat="47.468322" lon="7.956470">
        <ele>496.841741</ele>
        <time>2021-11-07T15:37:17.638Z</time>
      </trkpt>
      <trkpt lat="47.468267" lon="7.956746">
        <ele>495.690914</ele>
        <time>2021-11-07T15:37:19.389Z</time>
      </trkpt>
      <trkpt lat="47.468479" lon="7.957453">
        <ele>491.072523</ele>
        <time>2021-11-07T15:37:23.988Z</time>
      </trkpt>
      <trkpt lat="47.468507" lon="7.957558">
        <ele>490.320328</ele>
        <time>2021-11-07T15:37:24.656Z</time>
      </trkpt>
      <trkpt lat="47.468524" lon="7.957646">
        <ele>489.710420</ele>
        <time>2021-11-07T15:37:25.172Z</time>
      </trkpt>
      <trkpt lat="47.468536" lon="7.958296">
        <ele>485.377209</ele>
        <time>2021-11-07T15:37:29.012Z</time>
      </trkpt>
      <trkpt lat="47.468627" lon="7.958965">
        <ele>480.829641</ele>
        <time>2021-11-07T15:37:32.945Z</time>
      </trkpt>
      <trkpt lat="47.468637" lon="7.959076">
        <ele>480.083399</ele>
        <time>2021-11-07T15:37:33.570Z</time>
      </trkpt>
      <trkpt lat="47.468641" lon="7.959158">
        <ele>479.535532</ele>
        <time>2021-11-07T15:37:34.062Z</time>
      </trkpt>
      <trkpt lat="47.468645" lon="7.959223">
        <ele>479.100582</ele>
        <time>2021-11-07T15:37:34.433Z</time>
      </trkpt>
      <trkpt lat="47.468655" lon="7.959428">
        <ele>477.730914</ele>
        <time>2021-11-07T15:37:35.622Z</time>
      </trkpt>
      <trkpt lat="47.468634" lon="7.959800">
        <ele>475.155507</ele>
        <time>2021-11-07T15:37:37.749Z</time>
      </trkpt>
      <trkpt lat="47.468516" lon="7.960416">
        <ele>470.693008</ele>
        <time>2021-11-07T15:37:41.450Z</time>
      </trkpt>
      <trkpt lat="47.468503" lon="7.960562">
        <ele>469.666615</ele>
        <time>2021-11-07T15:37:42.276Z</time>
      </trkpt>
      <trkpt lat="47.468498" lon="7.960883">
        <ele>467.428687</ele>
        <time>2021-11-07T15:37:44.152Z</time>
      </trkpt>
      <trkpt lat="47.468509" lon="7.961184">
        <ele>465.327687</ele>
        <time>2021-11-07T15:37:45.855Z</time>
      </trkpt>
      <trkpt lat="47.468616" lon="7.962000">
        <ele>459.534252</ele>
        <time>2021-11-07T15:37:50.787Z</time>
      </trkpt>
      <trkpt lat="47.469373" lon="7.963006">
        <ele>452.981316</ele>
        <time>2021-11-07T15:37:59.862Z</time>
      </trkpt>
      <trkpt lat="47.469749" lon="7.963424">
        <ele>450.128298</ele>
        <time>2021-11-07T15:38:04.326Z</time>
      </trkpt>
      <trkpt lat="47.470318" lon="7.964176">
        <ele>446.477912</ele>
        <time>2021-11-07T15:38:11.789Z</time>
      </trkpt>
      <trkpt lat="47.470351" lon="7.964220">
        <ele>446.328206</ele>
        <time>2021-11-07T15:38:12.205Z</time>
      </trkpt>
      <trkpt lat="47.470610" lon="7.964511">
        <ele>445.232242</ele>
        <time>2021-11-07T15:38:15.462Z</time>
      </trkpt>
      <trkpt lat="47.471250" lon="7.965231">
        <ele>442.522799</ele>
        <time>2021-11-07T15:38:23.853Z</time>
      </trkpt>
      <trkpt lat="47.471503" lon="7.965463">
        <ele>441.497995</ele>
        <time>2021-11-07T15:38:26.830Z</time>
      </trkpt>
      <trkpt lat="47.471880" lon="7.965766">
        <ele>439.788782</ele>
        <time>2021-11-07T15:38:31.113Z</time>
      </trkpt>
      <trkpt lat="47.472564" lon="7.966330">
        <ele>436.669209</ele>
        <time>2021-11-07T15:38:38.849Z</time>
      </trkpt>
      <trkpt lat="47.472594" lon="7.966357">
        <ele>436.529317</ele>
        <time>2021-11-07T15:38:39.154Z</time>
      </trkpt>
      <trkpt lat="47.472859" lon="7.966644">
        <ele>435.220967</ele>
        <time>2021-11-07T15:38:42.303Z</time>
      </trkpt>
      <trkpt lat="47.473444" lon="7.967380">
        <ele>432.119869</ele>
        <time>2021-11-07T15:38:49.577Z</time>
      </trkpt>
      <trkpt lat="47.473664" lon="7.967490">
        <ele>431.178002</ele>
        <time>2021-11-07T15:38:51.835Z</time>
      </trkpt>
      <trkpt lat="47.474076" lon="7.967608">
        <ele>429.475968</ele>
        <time>2021-11-07T15:38:55.799Z</time>
      </trkpt>
      <trkpt lat="47.474238" lon="7.967666">
        <ele>428.799956</ele>
        <time>2021-11-07T15:38:57.443Z</time>
      </trkpt>
      <trkpt lat="47.474560" lon="7.967748">
        <ele>427.474767</ele>
        <time>2021-11-07T15:39:00.740Z</time>
      </trkpt>
      <trkpt lat="47.475217" lon="7.967697">
        <ele>426.515378</ele>
        <time>2021-11-07T15:39:08.025Z</time>
      </trkpt>
      <trkpt lat="47.475280" lon="7.967711">
        <ele>426.443135</ele>
        <time>2021-11-07T15:39:08.728Z</time>
      </trkpt>
      <trkpt lat="47.475359" lon="7.967770">
        <ele>426.342783</ele>
        <time>2021-11-07T15:39:09.762Z</time>
      </trkpt>
      <trkpt lat="47.475436" lon="7.967868">
        <ele>426.227602</ele>
        <time>2021-11-07T15:39:11.101Z</time>
      </trkpt>
      <trkpt lat="47.475607" lon="7.968209">
        <ele>425.902157</ele>
        <time>2021-11-07T15:39:14.880Z</time>
      </trkpt>
      <trkpt lat="47.475616" lon="7.968229">
        <ele>425.883741</ele>
        <time>2021-11-07T15:39:15.152Z</time>
      </trkpt>
      <trkpt lat="47.475616" lon="7.968229">
        <ele>425.883741</ele>
        <time>2021-11-07T15:39:15.165Z</time>
      </trkpt>
      <trkpt lat="47.475684" lon="7.968334">
        <ele>425.772282</ele>
        <time>2021-11-07T15:39:16.827Z</time>
      </trkpt>
      <trkpt lat="47.475729" lon="7.968403">
        <ele>425.698791</ele>
        <time>2021-11-07T15:39:17.867Z</time>
      </trkpt>
      <trkpt lat="47.475871" lon="7.968576">
        <ele>425.490195</ele>
        <time>2021-11-07T15:39:20.253Z</time>
      </trkpt>
      <trkpt lat="47.476103" lon="7.968806">
        <ele>425.173507</ele>
        <time>2021-11-07T15:39:24.010Z</time>
      </trkpt>
      <trkpt lat="47.476327" lon="7.969094">
        <ele>425.061885</ele>
        <time>2021-11-07T15:39:28.028Z</time>
      </trkpt>
      <trkpt lat="47.476396" lon="7.969182">
        <ele>425.035511</ele>
        <time>2021-11-07T15:39:29.242Z</time>
      </trkpt>
      <trkpt lat="47.476670" lon="7.969631">
        <ele>424.917135</ele>
        <time>2021-11-07T15:39:35.574Z</time>
      </trkpt>
      <trkpt lat="47.476944" lon="7.970103">
        <ele>424.795381</ele>
        <time>2021-11-07T15:39:42.505Z</time>
      </trkpt>
      <trkpt lat="47.477029" lon="7.970212">
        <ele>424.762815</ele>
        <time>2021-11-07T15:39:43.982Z</time>
      </trkpt>
      <trkpt lat="47.477135" lon="7.970342">
        <ele>424.722953</ele>
        <time>2021-11-07T15:39:46.407Z</time>
      </trkpt>
      <trkpt lat="47.477203" lon="7.970445">
        <ele>424.694778</ele>
        <time>2021-11-07T15:39:47.672Z</time>
      </trkpt>
      <trkpt lat="47.477262" lon="7.970548">
        <ele>424.668358</ele>
        <time>2021-11-07T15:39:48.751Z</time>
      </trkpt>
      <trkpt lat="47.477284" lon="7.970600">
        <ele>424.656353</ele>
        <time>2021-11-07T15:39:49.251Z</time>
      </trkpt>
      <trkpt lat="47.477322" lon="7.970682">
        <ele>424.636898</ele>
        <time>2021-11-07T15:39:50.304Z</time>
      </trkpt>
      <trkpt lat="47.477370" lon="7.970827">
        <ele>424.492005</ele>
        <time>2021-11-07T15:39:51.616Z</time>
      </trkpt>
      <trkpt lat="47.477522" lon="7.971381">
        <ele>423.350893</ele>
        <time>2021-11-07T15:39:56.277Z</time>
      </trkpt>
      <trkpt lat="47.477553" lon="7.971461">
        <ele>423.174899</ele>
        <time>2021-11-07T15:39:56.876Z</time>
      </trkpt>
      <trkpt lat="47.477623" lon="7.971640">
        <ele>422.780213</ele>
        <time>2021-11-07T15:39:58.327Z</time>
      </trkpt>
      <trkpt lat="47.477698" lon="7.971759">
        <ele>422.469680</ele>
        <time>2021-11-07T15:39:59.611Z</time>
      </trkpt>
      <trkpt lat="47.477778" lon="7.971876">
        <ele>422.152046</ele>
        <time>2021-11-07T15:40:00.702Z</time>
      </trkpt>
      <trkpt lat="47.478083" lon="7.972275">
        <ele>421.002436</ele>
        <time>2021-11-07T15:40:04.724Z</time>
      </trkpt>
      <trkpt lat="47.478198" lon="7.972475">
        <ele>420.501295</ele>
        <time>2021-11-07T15:40:06.626Z</time>
      </trkpt>
      <trkpt lat="47.478213" lon="7.972508">
        <ele>420.425396</ele>
        <time>2021-11-07T15:40:06.882Z</time>
      </trkpt>
      <trkpt lat="47.478295" lon="7.972689">
        <ele>420.009536</ele>
        <time>2021-11-07T15:40:08.275Z</time>
      </trkpt>
      <trkpt lat="47.478424" lon="7.973015">
        <ele>419.164451</ele>
        <time>2021-11-07T15:40:10.849Z</time>
      </trkpt>
      <trkpt lat="47.478494" lon="7.973191">
        <ele>418.581789</ele>
        <time>2021-11-07T15:40:12.116Z</time>
      </trkpt>
      <trkpt lat="47.478606" lon="7.973396">
        <ele>417.829679</ele>
        <time>2021-11-07T15:40:13.938Z</time>
      </trkpt>
      <trkpt lat="47.478952" lon="7.973850">
        <ele>415.877385</ele>
        <time>2021-11-07T15:40:18.336Z</time>
      </trkpt>
      <trkpt lat="47.479061" lon="7.974014">
        <ele>415.221117</ele>
        <time>2021-11-07T15:40:19.840Z</time>
      </trkpt>
      <trkpt lat="47.479095" lon="7.974066">
        <ele>415.014686</ele>
        <time>2021-11-07T15:40:20.353Z</time>
      </trkpt>
      <trkpt lat="47.479172" lon="7.974215">
        <ele>414.479528</ele>
        <time>2021-11-07T15:40:21.567Z</time>
      </trkpt>
      <trkpt lat="47.479198" lon="7.974266">
        <ele>414.297262</ele>
        <time>2021-11-07T15:40:21.952Z</time>
      </trkpt>
      <trkpt lat="47.479256" lon="7.974388">
        <ele>413.871685</ele>
        <time>2021-11-07T15:40:22.920Z</time>
      </trkpt>
      <trkpt lat="47.479521" lon="7.975122">
        <ele>411.638522</ele>
        <time>2021-11-07T15:40:28.369Z</time>
      </trkpt>
      <trkpt lat="47.479548" lon="7.975187">
        <ele>411.489280</ele>
        <time>2021-11-07T15:40:28.837Z</time>
      </trkpt>
      <trkpt lat="47.479650" lon="7.975428">
        <ele>410.933052</ele>
        <time>2021-11-07T15:40:30.809Z</time>
      </trkpt>
      <trkpt lat="47.479662" lon="7.975458">
        <ele>410.864861</ele>
        <time>2021-11-07T15:40:31.054Z</time>
      </trkpt>
      <trkpt lat="47.479744" lon="7.975611">
        <ele>410.482897</ele>
        <time>2021-11-07T15:40:32.313Z</time>
      </trkpt>
      <trkpt lat="47.480019" lon="7.976061">
        <ele>409.296169</ele>
        <time>2021-11-07T15:40:36.583Z</time>
      </trkpt>
      <trkpt lat="47.479972" lon="7.976106">
        <ele>409.134142</ele>
        <time>2021-11-07T15:40:37.499Z</time>
      </trkpt>
      <trkpt lat="47.479953" lon="7.976158">
        <ele>409.018512</ele>
        <time>2021-11-07T15:40:38.206Z</time>
      </trkpt>
      <trkpt lat="47.479972" lon="7.976106">
        <ele>408.902882</ele>
        <time>2021-11-07T15:40:38.874Z</time>
      </trkpt>
      <trkpt lat="47.480019" lon="7.976061">
        <ele>408.740855</ele>
        <time>2021-11-07T15:40:39.776Z</time>
      </trkpt>
      <trkpt lat="47.480172" lon="7.976321">
        <ele>408.066504</ele>
        <time>2021-11-07T15:40:42.259Z</time>
      </trkpt>
      <trkpt lat="47.480258" lon="7.976521">
        <ele>407.602818</ele>
        <time>2021-11-07T15:40:44.094Z</time>
      </trkpt>
      <trkpt lat="47.480294" lon="7.976615">
        <ele>407.391477</ele>
        <time>2021-11-07T15:40:44.782Z</time>
      </trkpt>
      <trkpt lat="47.480540" lon="7.977249">
        <ele>406.161123</ele>
        <time>2021-11-07T15:40:50.100Z</time>
      </trkpt>
      <trkpt lat="47.481057" lon="7.978315">
        <ele>404.252361</ele>
        <time>2021-11-07T15:40:59.636Z</time>
      </trkpt>
      <trkpt lat="47.481075" lon="7.978353">
        <ele>404.184854</ele>
        <time>2021-11-07T15:40:59.926Z</time>
      </trkpt>
      <trkpt lat="47.481331" lon="7.978796">
        <ele>403.336928</ele>
        <time>2021-11-07T15:41:04.254Z</time>
      </trkpt>
      <trkpt lat="47.481417" lon="7.978989">
        <ele>403.000627</ele>
        <time>2021-11-07T15:41:06.085Z</time>
      </trkpt>
      <trkpt lat="47.481508" lon="7.979190">
        <ele>402.705953</ele>
        <time>2021-11-07T15:41:07.873Z</time>
      </trkpt>
      <trkpt lat="47.481627" lon="7.979494">
        <ele>402.327830</ele>
        <time>2021-11-07T15:41:10.695Z</time>
      </trkpt>
      <trkpt lat="47.481673" lon="7.979611">
        <ele>402.182143</ele>
        <time>2021-11-07T15:41:11.728Z</time>
      </trkpt>
      <trkpt lat="47.481757" lon="7.979824">
        <ele>401.916711</ele>
        <time>2021-11-07T15:41:13.604Z</time>
      </trkpt>
      <trkpt lat="47.481977" lon="7.980334">
        <ele>401.265504</ele>
        <time>2021-11-07T15:41:18.276Z</time>
      </trkpt>
      <trkpt lat="47.482025" lon="7.980480">
        <ele>401.090756</ele>
        <time>2021-11-07T15:41:19.485Z</time>
      </trkpt>
      <trkpt lat="47.482099" lon="7.980698">
        <ele>400.828187</ele>
        <time>2021-11-07T15:41:21.403Z</time>
      </trkpt>
      <trkpt lat="47.482159" lon="7.980898">
        <ele>400.592670</ele>
        <time>2021-11-07T15:41:23.079Z</time>
      </trkpt>
      <trkpt lat="47.482458" lon="7.981897">
        <ele>399.505721</ele>
        <time>2021-11-07T15:41:31.608Z</time>
      </trkpt>
      <trkpt lat="47.482472" lon="7.981944">
        <ele>399.458812</ele>
        <time>2021-11-07T15:41:31.985Z</time>
      </trkpt>
      <trkpt lat="47.482563" lon="7.982231">
        <ele>399.169285</ele>
        <time>2021-11-07T15:41:34.653Z</time>
      </trkpt>
      <trkpt lat="47.482594" lon="7.982339">
        <ele>399.062122</ele>
        <time>2021-11-07T15:41:35.556Z</time>
      </trkpt>
      <trkpt lat="47.482652" lon="7.982524">
        <ele>398.875869</ele>
        <time>2021-11-07T15:41:37.174Z</time>
      </trkpt>
      <trkpt lat="47.482704" lon="7.982687">
        <ele>398.711252</ele>
        <time>2021-11-07T15:41:38.746Z</time>
      </trkpt>
      <trkpt lat="47.482729" lon="7.982770">
        <ele>398.628262</ele>
        <time>2021-11-07T15:41:39.434Z</time>
      </trkpt>
      <trkpt lat="47.482840" lon="7.983205">
        <ele>398.203609</ele>
        <time>2021-11-07T15:41:43.256Z</time>
      </trkpt>
      <trkpt lat="47.482897" lon="7.983529">
        <ele>397.897844</ele>
        <time>2021-11-07T15:41:45.872Z</time>
      </trkpt>
      <trkpt lat="47.483001" lon="7.984129">
        <ele>397.263131</ele>
        <time>2021-11-07T15:41:50.682Z</time>
      </trkpt>
      <trkpt lat="47.483130" lon="7.984873">
        <ele>396.361245</ele>
        <time>2021-11-07T15:41:56.441Z</time>
      </trkpt>
      <trkpt lat="47.483153" lon="7.984996">
        <ele>396.211394</ele>
        <time>2021-11-07T15:41:57.412Z</time>
      </trkpt>
      <trkpt lat="47.483173" lon="7.985106">
        <ele>396.077641</ele>
        <time>2021-11-07T15:41:58.294Z</time>
      </trkpt>
      <trkpt lat="47.483274" lon="7.985553">
        <ele>395.524224</ele>
        <time>2021-11-07T15:42:01.877Z</time>
      </trkpt>
      <trkpt lat="47.483382" lon="7.985915">
        <ele>395.059595</ele>
        <time>2021-11-07T15:42:04.916Z</time>
      </trkpt>
      <trkpt lat="47.483462" lon="7.986151">
        <ele>394.749583</ele>
        <time>2021-11-07T15:42:06.921Z</time>
      </trkpt>
      <trkpt lat="47.483550" lon="7.986378">
        <ele>394.441271</ele>
        <time>2021-11-07T15:42:08.890Z</time>
      </trkpt>
      <trkpt lat="47.483775" lon="7.986910">
        <ele>393.584098</ele>
        <time>2021-11-07T15:42:13.551Z</time>
      </trkpt>
      <trkpt lat="47.484569" lon="7.988582">
        <ele>390.799501</ele>
        <time>2021-11-07T15:42:28.452Z</time>
      </trkpt>
      <trkpt lat="47.485480" lon="7.990116">
        <ele>388.888514</ele>
        <time>2021-11-07T15:42:44.483Z</time>
      </trkpt>
      <trkpt lat="47.485638" lon="7.990371">
        <ele>388.564778</ele>
        <time>2021-11-07T15:42:47.316Z</time>
      </trkpt>
      <trkpt lat="47.485781" lon="7.990604">
        <ele>388.297678</ele>
        <time>2021-11-07T15:42:49.895Z</time>
      </trkpt>
      <trkpt lat="47.486196" lon="7.991276">
        <ele>387.889309</ele>
        <time>2021-11-07T15:42:57.696Z</time>
      </trkpt>
      <trkpt lat="47.486319" lon="7.991471">
        <ele>387.769650</ele>
        <time>2021-11-07T15:43:00.074Z</time>
      </trkpt>
      <trkpt lat="47.486489" lon="7.991744">
        <ele>387.603120</ele>
        <time>2021-11-07T15:43:03.442Z</time>
      </trkpt>
      <trkpt lat="47.487177" lon="7.992841">
        <ele>386.774522</ele>
        <time>2021-11-07T15:43:17.057Z</time>
      </trkpt>
      <trkpt lat="47.487787" lon="7.993572">
        <ele>385.838068</ele>
        <time>2021-11-07T15:43:26.386Z</time>
      </trkpt>
      <trkpt lat="47.488382" lon="7.994128">
        <ele>384.998529</ele>
        <time>2021-11-07T15:43:34.429Z</time>
      </trkpt>
      <trkpt lat="47.488991" lon="7.994692">
        <ele>383.780377</ele>
        <time>2021-11-07T15:43:42.589Z</time>
      </trkpt>
      <trkpt lat="47.489245" lon="7.994928">
        <ele>383.269084</ele>
        <time>2021-11-07T15:43:45.990Z</time>
      </trkpt>
      <trkpt lat="47.490016" lon="7.995686">
        <ele>381.641899</ele>
        <time>2021-11-07T15:43:56.315Z</time>
      </trkpt>
      <trkpt lat="47.490899" lon="7.996664">
        <ele>379.352046</ele>
        <time>2021-11-07T15:44:08.453Z</time>
      </trkpt>
      <trkpt lat="47.490940" lon="7.996698">
        <ele>379.254470</ele>
        <time>2021-11-07T15:44:08.971Z</time>
      </trkpt>
      <trkpt lat="47.491068" lon="7.996814">
        <ele>378.942849</ele>
        <time>2021-11-07T15:44:10.539Z</time>
      </trkpt>
      <trkpt lat="47.491354" lon="7.997016">
        <ele>378.284901</ele>
        <time>2021-11-07T15:44:13.977Z</time>
      </trkpt>
      <trkpt lat="47.491886" lon="7.997365">
        <ele>377.083701</ele>
        <time>2021-11-07T15:44:20.226Z</time>
      </trkpt>
      <trkpt lat="47.492317" lon="7.997637">
        <ele>376.117045</ele>
        <time>2021-11-07T15:44:25.160Z</time>
      </trkpt>
      <trkpt lat="47.492477" lon="7.997747">
        <ele>375.753075</ele>
        <time>2021-11-07T15:44:27.084Z</time>
      </trkpt>
      <trkpt lat="47.492617" lon="7.997908">
        <ele>375.387297</ele>
        <time>2021-11-07T15:44:29.025Z</time>
      </trkpt>
      <trkpt lat="47.492722" lon="7.998050">
        <ele>375.093855</ele>
        <time>2021-11-07T15:44:30.683Z</time>
      </trkpt>
      <trkpt lat="47.492747" lon="7.998084">
        <ele>375.023808</ele>
        <time>2021-11-07T15:44:31.067Z</time>
      </trkpt>
      <trkpt lat="47.492877" lon="7.998257">
        <ele>374.663129</ele>
        <time>2021-11-07T15:44:32.988Z</time>
      </trkpt>
      <trkpt lat="47.493144" lon="7.998645">
        <ele>374.268073</ele>
        <time>2021-11-07T15:44:37.344Z</time>
      </trkpt>
      <trkpt lat="47.493296" lon="7.998833">
        <ele>374.124739</ele>
        <time>2021-11-07T15:44:39.809Z</time>
      </trkpt>
      <trkpt lat="47.493358" lon="7.998911">
        <ele>374.065860</ele>
        <time>2021-11-07T15:44:40.769Z</time>
      </trkpt>
      <trkpt lat="47.493433" lon="7.998996">
        <ele>373.997508</ele>
        <time>2021-11-07T15:44:41.969Z</time>
      </trkpt>
      <trkpt lat="47.493502" lon="7.999071">
        <ele>373.935563</ele>
        <time>2021-11-07T15:44:43.086Z</time>
      </trkpt>
      <trkpt lat="47.493603" lon="7.999152">
        <ele>373.852442</ele>
        <time>2021-11-07T15:44:44.526Z</time>
      </trkpt>
      <trkpt lat="47.493742" lon="7.999216">
        <ele>373.747110</ele>
        <time>2021-11-07T15:44:46.370Z</time>
      </trkpt>
      <trkpt lat="47.493937" lon="7.999285">
        <ele>373.602036</ele>
        <time>2021-11-07T15:44:49.003Z</time>
      </trkpt>
      <trkpt lat="47.493961" lon="7.999292">
        <ele>373.584336</ele>
        <time>2021-11-07T15:44:49.308Z</time>
      </trkpt>
      <trkpt lat="47.494272" lon="7.999381">
        <ele>373.355136</ele>
        <time>2021-11-07T15:44:53.741Z</time>
      </trkpt>
      <trkpt lat="47.494489" lon="7.999417">
        <ele>373.197137</ele>
        <time>2021-11-07T15:44:57.079Z</time>
      </trkpt>
      <trkpt lat="47.494643" lon="7.999430">
        <ele>373.114416</ele>
        <time>2021-11-07T15:44:59.429Z</time>
      </trkpt>
      <trkpt lat="47.494812" lon="7.999457">
        <ele>373.033372</ele>
        <time>2021-11-07T15:45:01.920Z</time>
      </trkpt>
      <trkpt lat="47.495197" lon="7.999589">
        <ele>372.844952</ele>
        <time>2021-11-07T15:45:07.465Z</time>
      </trkpt>
      <trkpt lat="47.495430" lon="7.999752">
        <ele>372.722078</ele>
        <time>2021-11-07T15:45:10.962Z</time>
      </trkpt>
      <trkpt lat="47.495718" lon="8.000005">
        <ele>372.562401</ele>
        <time>2021-11-07T15:45:15.381Z</time>
      </trkpt>
      <trkpt lat="47.496011" lon="8.000286">
        <ele>372.395942</ele>
        <time>2021-11-07T15:45:19.843Z</time>
      </trkpt>
      <trkpt lat="47.496234" lon="8.000584">
        <ele>372.118410</ele>
        <time>2021-11-07T15:45:23.509Z</time>
      </trkpt>
      <trkpt lat="47.496272" lon="8.000651">
        <ele>372.027141</ele>
        <time>2021-11-07T15:45:24.361Z</time>
      </trkpt>
      <trkpt lat="47.496280" lon="8.000664">
        <ele>372.008795</ele>
        <time>2021-11-07T15:45:24.496Z</time>
      </trkpt>
      <trkpt lat="47.496429" lon="8.000925">
        <ele>371.652289</ele>
        <time>2021-11-07T15:45:27.167Z</time>
      </trkpt>
      <trkpt lat="47.496517" lon="8.001077">
        <ele>371.443443</ele>
        <time>2021-11-07T15:45:28.874Z</time>
      </trkpt>
      <trkpt lat="47.496533" lon="8.001104">
        <ele>371.405972</ele>
        <time>2021-11-07T15:45:29.126Z</time>
      </trkpt>
      <trkpt lat="47.496535" lon="8.001108">
        <ele>371.400781</ele>
        <time>2021-11-07T15:45:29.166Z</time>
      </trkpt>
      <trkpt lat="47.496585" lon="8.001187">
        <ele>371.287841</ele>
        <time>2021-11-07T15:45:29.963Z</time>
      </trkpt>
      <trkpt lat="47.496820" lon="8.001547">
        <ele>370.765568</ele>
        <time>2021-11-07T15:45:33.856Z</time>
      </trkpt>
      <trkpt lat="47.496861" lon="8.001608">
        <ele>370.675796</ele>
        <time>2021-11-07T15:45:34.489Z</time>
      </trkpt>
      <trkpt lat="47.496908" lon="8.001680">
        <ele>370.571341</ele>
        <time>2021-11-07T15:45:35.253Z</time>
      </trkpt>
      <trkpt lat="47.496932" lon="8.001715">
        <ele>370.519312</ele>
        <time>2021-11-07T15:45:35.619Z</time>
      </trkpt>
      <trkpt lat="47.497207" lon="8.002132">
        <ele>369.911345</ele>
        <time>2021-11-07T15:45:39.919Z</time>
      </trkpt>
      <trkpt lat="47.497264" lon="8.002219">
        <ele>369.784906</ele>
        <time>2021-11-07T15:45:40.861Z</time>
      </trkpt>
      <trkpt lat="47.497307" lon="8.002279">
        <ele>369.693649</ele>
        <time>2021-11-07T15:45:41.494Z</time>
      </trkpt>
      <trkpt lat="47.497390" lon="8.002409">
        <ele>369.501622</ele>
        <time>2021-11-07T15:45:42.856Z</time>
      </trkpt>
      <trkpt lat="47.497540" lon="8.002634">
        <ele>369.108311</ele>
        <time>2021-11-07T15:45:45.255Z</time>
      </trkpt>
      <trkpt lat="47.497607" lon="8.002710">
        <ele>368.952850</ele>
        <time>2021-11-07T15:45:46.174Z</time>
      </trkpt>
      <trkpt lat="47.497951" lon="8.003094">
        <ele>368.159338</ele>
        <time>2021-11-07T15:45:51.046Z</time>
      </trkpt>
      <trkpt lat="47.498072" lon="8.003250">
        <ele>367.863812</ele>
        <time>2021-11-07T15:45:52.777Z</time>
      </trkpt>
      <trkpt lat="47.498166" lon="8.003383">
        <ele>367.624322</ele>
        <time>2021-11-07T15:45:54.256Z</time>
      </trkpt>
      <trkpt lat="47.498213" lon="8.003454">
        <ele>367.500641</ele>
        <time>2021-11-07T15:45:55.022Z</time>
      </trkpt>
      <trkpt lat="47.498450" lon="8.003874">
        <ele>366.819752</ele>
        <time>2021-11-07T15:45:59.111Z</time>
      </trkpt>
      <trkpt lat="47.498698" lon="8.004313">
        <ele>366.142841</ele>
        <time>2021-11-07T15:46:03.353Z</time>
      </trkpt>
      <trkpt lat="47.498753" lon="8.004410">
        <ele>366.033423</ele>
        <time>2021-11-07T15:46:04.263Z</time>
      </trkpt>
      <trkpt lat="47.498898" lon="8.004636">
        <ele>365.764124</ele>
        <time>2021-11-07T15:46:06.756Z</time>
      </trkpt>
      <trkpt lat="47.498965" lon="8.004710">
        <ele>365.657210</ele>
        <time>2021-11-07T15:46:07.698Z</time>
      </trkpt>
      <trkpt lat="47.499012" lon="8.004762">
        <ele>365.582164</ele>
        <time>2021-11-07T15:46:08.350Z</time>
      </trkpt>
      <trkpt lat="47.499183" lon="8.004875">
        <ele>365.342662</ele>
        <time>2021-11-07T15:46:10.627Z</time>
      </trkpt>
      <trkpt lat="47.499409" lon="8.005000">
        <ele>365.034105</ele>
        <time>2021-11-07T15:46:13.476Z</time>
      </trkpt>
      <trkpt lat="47.499496" lon="8.005059">
        <ele>364.911716</ele>
        <time>2021-11-07T15:46:14.646Z</time>
      </trkpt>
      <trkpt lat="47.499523" lon="8.005078">
        <ele>364.873482</ele>
        <time>2021-11-07T15:46:14.988Z</time>
      </trkpt>
      <trkpt lat="47.499770" lon="8.005268">
        <ele>364.517476</ele>
        <time>2021-11-07T15:46:18.311Z</time>
      </trkpt>
      <trkpt lat="47.499856" lon="8.005338">
        <ele>364.391956</ele>
        <time>2021-11-07T15:46:19.473Z</time>
      </trkpt>
      <trkpt lat="47.499880" lon="8.005358">
        <ele>364.356731</ele>
        <time>2021-11-07T15:46:19.787Z</time>
      </trkpt>
      <trkpt lat="47.499991" lon="8.005468">
        <ele>364.185892</ele>
        <time>2021-11-07T15:46:21.362Z</time>
      </trkpt>
      <trkpt lat="47.500009" lon="8.005488">
        <ele>364.157107</ele>
        <time>2021-11-07T15:46:21.653Z</time>
      </trkpt>
      <trkpt lat="47.500207" lon="8.005727">
        <ele>363.885295</ele>
        <time>2021-11-07T15:46:24.814Z</time>
      </trkpt>
      <trkpt lat="47.500252" lon="8.005784">
        <ele>363.854808</ele>
        <time>2021-11-07T15:46:25.599Z</time>
      </trkpt>
      <trkpt lat="47.500310" lon="8.005852">
        <ele>363.816723</ele>
        <time>2021-11-07T15:46:26.527Z</time>
      </trkpt>
      <trkpt lat="47.500540" lon="8.006079">
        <ele>363.674430</ele>
        <time>2021-11-07T15:46:30.093Z</time>
      </trkpt>
      <trkpt lat="47.500647" lon="8.006180">
        <ele>363.609108</ele>
        <time>2021-11-07T15:46:31.800Z</time>
      </trkpt>
      <trkpt lat="47.500764" lon="8.006290">
        <ele>363.537763</ele>
        <time>2021-11-07T15:46:33.564Z</time>
      </trkpt>
      <trkpt lat="47.500997" lon="8.006551">
        <ele>363.387358</ele>
        <time>2021-11-07T15:46:37.682Z</time>
      </trkpt>
      <trkpt lat="47.501276" lon="8.006911">
        <ele>363.196843</ele>
        <time>2021-11-07T15:46:43.110Z</time>
      </trkpt>
      <trkpt lat="47.501293" lon="8.006936">
        <ele>363.184508</ele>
        <time>2021-11-07T15:46:43.435Z</time>
      </trkpt>
      <trkpt lat="47.501496" lon="8.007247">
        <ele>363.034128</ele>
        <time>2021-11-07T15:46:47.389Z</time>
      </trkpt>
      <trkpt lat="47.501537" lon="8.007308">
        <ele>363.004205</ele>
        <time>2021-11-07T15:46:48.133Z</time>
      </trkpt>
      <trkpt lat="47.501943" lon="8.008353">
        <ele>362.090940</ele>
        <time>2021-11-07T15:46:58.606Z</time>
      </trkpt>
      <trkpt lat="47.502062" lon="8.008650">
        <ele>361.826680</ele>
        <time>2021-11-07T15:47:01.545Z</time>
      </trkpt>
      <trkpt lat="47.502158" lon="8.008808">
        <ele>361.664055</ele>
        <time>2021-11-07T15:47:03.253Z</time>
      </trkpt>
      <trkpt lat="47.502267" lon="8.008979">
        <ele>361.484134</ele>
        <time>2021-11-07T15:47:05.085Z</time>
      </trkpt>
      <trkpt lat="47.502773" lon="8.009928">
        <ele>360.242415</ele>
        <time>2021-11-07T15:47:14.046Z</time>
      </trkpt>
      <trkpt lat="47.502959" lon="8.010415">
        <ele>359.475534</ele>
        <time>2021-11-07T15:47:18.114Z</time>
      </trkpt>
      <trkpt lat="47.503207" lon="8.011279">
        <ele>358.188696</ele>
        <time>2021-11-07T15:47:25.036Z</time>
      </trkpt>
      <trkpt lat="47.503268" lon="8.011479">
        <ele>357.887892</ele>
        <time>2021-11-07T15:47:26.712Z</time>
      </trkpt>
      <trkpt lat="47.503325" lon="8.011662">
        <ele>357.611658</ele>
        <time>2021-11-07T15:47:28.194Z</time>
      </trkpt>
      <trkpt lat="47.503561" lon="8.012433">
        <ele>356.706030</ele>
        <time>2021-11-07T15:47:34.466Z</time>
      </trkpt>
      <trkpt lat="47.503675" lon="8.012805">
        <ele>356.312311</ele>
        <time>2021-11-07T15:47:37.475Z</time>
      </trkpt>
      <trkpt lat="47.503759" lon="8.013139">
        <ele>355.968802</ele>
        <time>2021-11-07T15:47:40.185Z</time>
      </trkpt>
      <trkpt lat="47.503818" lon="8.013443">
        <ele>355.663941</ele>
        <time>2021-11-07T15:47:42.717Z</time>
      </trkpt>
      <trkpt lat="47.503854" lon="8.013721">
        <ele>355.391114</ele>
        <time>2021-11-07T15:47:45.123Z</time>
      </trkpt>
      <trkpt lat="47.503922" lon="8.014235">
        <ele>354.886289</ele>
        <time>2021-11-07T15:47:49.788Z</time>
      </trkpt>
      <trkpt lat="47.504106" lon="8.015484">
        <ele>354.302469</ele>
        <time>2021-11-07T15:48:00.594Z</time>
      </trkpt>
      <trkpt lat="47.504246" lon="8.016448">
        <ele>353.917965</ele>
        <time>2021-11-07T15:48:09.212Z</time>
      </trkpt>
      <trkpt lat="47.504281" lon="8.016674">
        <ele>353.827550</ele>
        <time>2021-11-07T15:48:11.258Z</time>
      </trkpt>
      <trkpt lat="47.504393" lon="8.017182">
        <ele>353.708157</ele>
        <time>2021-11-07T15:48:16.583Z</time>
      </trkpt>
      <trkpt lat="47.504413" lon="8.017267">
        <ele>353.709564</ele>
        <time>2021-11-07T15:48:17.579Z</time>
      </trkpt>
      <trkpt lat="47.504588" lon="8.017986">
        <ele>353.721510</ele>
        <time>2021-11-07T15:48:25.625Z</time>
      </trkpt>
      <trkpt lat="47.504626" lon="8.018141">
        <ele>353.724088</ele>
        <time>2021-11-07T15:48:27.256Z</time>
      </trkpt>
      <trkpt lat="47.504819" lon="8.018974">
        <ele>353.737853</ele>
        <time>2021-11-07T15:48:36.057Z</time>
      </trkpt>
      <trkpt lat="47.504877" lon="8.019222">
        <ele>353.741956</ele>
        <time>2021-11-07T15:48:38.902Z</time>
      </trkpt>
      <trkpt lat="47.504998" lon="8.019743">
        <ele>353.570609</ele>
        <time>2021-11-07T15:48:44.840Z</time>
      </trkpt>
      <trkpt lat="47.505207" lon="8.020615">
        <ele>352.968357</ele>
        <time>2021-11-07T15:48:53.278Z</time>
      </trkpt>
      <trkpt lat="47.505291" lon="8.020961">
        <ele>352.729044</ele>
        <time>2021-11-07T15:48:56.354Z</time>
      </trkpt>
      <trkpt lat="47.505529" lon="8.021539">
        <ele>352.288442</ele>
        <time>2021-11-07T15:49:01.571Z</time>
      </trkpt>
      <trkpt lat="47.505600" lon="8.021664">
        <ele>352.182141</ele>
        <time>2021-11-07T15:49:02.711Z</time>
      </trkpt>
      <trkpt lat="47.505653" lon="8.021731">
        <ele>352.114986</ele>
        <time>2021-11-07T15:49:03.529Z</time>
      </trkpt>
      <trkpt lat="47.506220" lon="8.022129">
        <ele>350.637849</ele>
        <time>2021-11-07T15:49:10.359Z</time>
      </trkpt>
      <trkpt lat="47.506503" lon="8.022393">
        <ele>349.756375</ele>
        <time>2021-11-07T15:49:13.962Z</time>
      </trkpt>
      <trkpt lat="47.506535" lon="8.022414">
        <ele>349.664136</ele>
        <time>2021-11-07T15:49:14.282Z</time>
      </trkpt>
      <trkpt lat="47.506621" lon="8.022234">
        <ele>349.271677</ele>
        <time>2021-11-07T15:49:15.870Z</time>
      </trkpt>
      <trkpt lat="47.506655" lon="8.022123">
        <ele>349.054724</ele>
        <time>2021-11-07T15:49:16.738Z</time>
      </trkpt>
      <trkpt lat="47.506655" lon="8.022123">
        <ele>349.054724</ele>
        <time>2021-11-07T15:49:16.741Z</time>
      </trkpt>
      <trkpt lat="47.506678" lon="8.022015">
        <ele>348.853148</ele>
        <time>2021-11-07T15:49:17.544Z</time>
      </trkpt>
      <trkpt lat="47.506735" lon="8.021861">
        <ele>348.540563</ele>
        <time>2021-11-07T15:49:18.711Z</time>
      </trkpt>
      <trkpt lat="47.506867" lon="8.021604">
        <ele>347.965863</ele>
        <time>2021-11-07T15:49:20.939Z</time>
      </trkpt>
      <trkpt lat="47.506910" lon="8.021529">
        <ele>347.790754</ele>
        <time>2021-11-07T15:49:21.571Z</time>
      </trkpt>
      <trkpt lat="47.506949" lon="8.021459">
        <ele>347.629235</ele>
        <time>2021-11-07T15:49:22.214Z</time>
      </trkpt>
      <trkpt lat="47.507007" lon="8.021362">
        <ele>347.398640</ele>
        <time>2021-11-07T15:49:23.106Z</time>
      </trkpt>
      <trkpt lat="47.507213" lon="8.021061">
        <ele>346.749422</ele>
        <time>2021-11-07T15:49:26.059Z</time>
      </trkpt>
      <trkpt lat="47.507466" lon="8.020697">
        <ele>345.985249</ele>
        <time>2021-11-07T15:49:29.694Z</time>
      </trkpt>
      <trkpt lat="47.507609" lon="8.020484">
        <ele>345.545855</ele>
        <time>2021-11-07T15:49:31.830Z</time>
      </trkpt>
      <trkpt lat="47.507666" lon="8.020400">
        <ele>345.371646</ele>
        <time>2021-11-07T15:49:32.697Z</time>
      </trkpt>
      <trkpt lat="47.507863" lon="8.020075">
        <ele>344.732740</ele>
        <time>2021-11-07T15:49:35.892Z</time>
      </trkpt>
      <trkpt lat="47.507895" lon="8.020117">
        <ele>344.640109</ele>
        <time>2021-11-07T15:49:36.354Z</time>
      </trkpt>
      <trkpt lat="47.507995" lon="8.020296">
        <ele>344.300242</ele>
        <time>2021-11-07T15:49:38.135Z</time>
      </trkpt>
      <trkpt lat="47.508000" lon="8.020315">
        <ele>344.270407</ele>
        <time>2021-11-07T15:49:38.266Z</time>
      </trkpt>
      <trkpt lat="47.508039" lon="8.020467">
        <ele>344.032508</ele>
        <time>2021-11-07T15:49:39.469Z</time>
      </trkpt>
      <trkpt lat="47.508194" lon="8.021281">
        <ele>343.851369</ele>
        <time>2021-11-07T15:49:46.198Z</time>
      </trkpt>
      <trkpt lat="47.508213" lon="8.021364">
        <ele>343.955661</ele>
        <time>2021-11-07T15:49:47.017Z</time>
      </trkpt>
      <trkpt lat="47.508331" lon="8.021703">
        <ele>344.409500</ele>
        <time>2021-11-07T15:49:52.067Z</time>
      </trkpt>
      <trkpt lat="47.508453" lon="8.021990">
        <ele>344.813045</ele>
        <time>2021-11-07T15:49:56.282Z</time>
      </trkpt>
      <trkpt lat="47.508643" lon="8.022392">
        <ele>345.396921</ele>
        <time>2021-11-07T15:50:03.776Z</time>
      </trkpt>
      <trkpt lat="47.508786" lon="8.022604">
        <ele>345.753458</ele>
        <time>2021-11-07T15:50:09.450Z</time>
      </trkpt>
      <trkpt lat="47.508863" lon="8.022719">
        <ele>345.946154</ele>
        <time>2021-11-07T15:50:12.202Z</time>
      </trkpt>
      <trkpt lat="47.508958" lon="8.022838">
        <ele>346.165395</ele>
        <time>2021-11-07T15:50:16.151Z</time>
      </trkpt>
      <trkpt lat="47.509187" lon="8.023037">
        <ele>346.803697</ele>
        <time>2021-11-07T15:50:24.097Z</time>
      </trkpt>
      <trkpt lat="47.509313" lon="8.023129">
        <ele>347.537252</ele>
        <time>2021-11-07T15:50:29.347Z</time>
      </trkpt>
      <trkpt lat="47.509881" lon="8.023632">
        <ele>350.993064</ele>
        <time>2021-11-07T15:50:53.438Z</time>
      </trkpt>
      <trkpt lat="47.510365" lon="8.024216">
        <ele>354.253218</ele>
        <time>2021-11-07T15:51:17.904Z</time>
      </trkpt>
      <trkpt lat="47.510756" lon="8.024675">
        <ele>356.590911</ele>
        <time>2021-11-07T15:51:34.561Z</time>
      </trkpt>
      <trkpt lat="47.510843" lon="8.024760">
        <ele>356.976923</ele>
        <time>2021-11-07T15:51:38.709Z</time>
      </trkpt>
      <trkpt lat="47.510797" lon="8.024831">
        <ele>357.223010</ele>
        <time>2021-11-07T15:51:47.988Z</time>
      </trkpt>
      <trkpt lat="47.510724" lon="8.024840">
        <ele>357.494281</ele>
        <time>2021-11-07T15:51:57.395Z</time>
      </trkpt>
      <trkpt lat="47.510588" lon="8.024732">
        <ele>358.065797</ele>
        <time>2021-11-07T15:52:16.200Z</time>
      </trkpt>
      <trkpt lat="47.510588" lon="8.024732">
        <ele>358.065797</ele>
        <time>2021-11-07T15:52:16.296Z</time>
      </trkpt>
      <trkpt lat="47.510588" lon="8.024732">
        <ele>358.065797</ele>
        <time>2021-11-07T15:52:16.331Z</time>
      </trkpt>
      <trkpt lat="47.510724" lon="8.024840">
        <ele>358.637314</ele>
        <time>2021-11-07T15:52:37.596Z</time>
      </trkpt>
      <trkpt lat="47.510797" lon="8.024831">
        <ele>358.908585</ele>
        <time>2021-11-07T15:52:46.876Z</time>
      </trkpt>
      <trkpt lat="47.510843" lon="8.024760">
        <ele>359.154672</ele>
        <time>2021-11-07T15:52:54.128Z</time>
      </trkpt>
      <trkpt lat="47.511071" lon="8.024979">
        <ele>360.161141</ele>
        <time>2021-11-07T15:53:03.609Z</time>
      </trkpt>
      <trkpt lat="47.511906" lon="8.025487">
        <ele>363.340611</ele>
        <time>2021-11-07T15:53:24.521Z</time>
      </trkpt>
      <trkpt lat="47.512274" lon="8.025656">
        <ele>364.509687</ele>
        <time>2021-11-07T15:53:32.742Z</time>
      </trkpt>
      <trkpt lat="47.512538" lon="8.025758">
        <ele>365.337548</ele>
        <time>2021-11-07T15:53:39.881Z</time>
      </trkpt>
      <trkpt lat="47.512908" lon="8.025853">
        <ele>366.476967</ele>
        <time>2021-11-07T15:53:49.897Z</time>
      </trkpt>
      <trkpt lat="47.513218" lon="8.025897">
        <ele>367.421887</ele>
        <time>2021-11-07T15:53:58.658Z</time>
      </trkpt>
      <trkpt lat="47.513425" lon="8.025912">
        <ele>368.050723</ele>
        <time>2021-11-07T15:54:04.773Z</time>
      </trkpt>
      <trkpt lat="47.513701" lon="8.025904">
        <ele>370.141584</ele>
        <time>2021-11-07T15:54:23.968Z</time>
      </trkpt>
      <trkpt lat="47.514210" lon="8.025838">
        <ele>374.026281</ele>
        <time>2021-11-07T15:54:59.547Z</time>
      </trkpt>
      <trkpt lat="47.514465" lon="8.025897">
        <ele>375.988554</ele>
        <time>2021-11-07T15:55:17.488Z</time>
      </trkpt>
      <trkpt lat="47.514576" lon="8.025992">
        <ele>376.963328</ele>
        <time>2021-11-07T15:55:26.448Z</time>
      </trkpt>
      <trkpt lat="47.514595" lon="8.026008">
        <ele>377.129514</ele>
        <time>2021-11-07T15:55:27.999Z</time>
      </trkpt>
      <trkpt lat="47.514817" lon="8.026467">
        <ele>380.028505</ele>
        <time>2021-11-07T15:55:54.556Z</time>
      </trkpt>
      <trkpt lat="47.514885" lon="8.026707">
        <ele>381.364955</ele>
        <time>2021-11-07T15:56:06.867Z</time>
      </trkpt>
      <trkpt lat="47.514979" lon="8.027036">
        <ele>383.656003</ele>
        <time>2021-11-07T15:56:23.711Z</time>
      </trkpt>
      <trkpt lat="47.515004" lon="8.027124">
        <ele>384.298698</ele>
        <time>2021-11-07T15:56:28.211Z</time>
      </trkpt>
      <trkpt lat="47.515321" lon="8.028237">
        <ele>392.430425</ele>
        <time>2021-11-07T15:57:25.099Z</time>
      </trkpt>
      <trkpt lat="47.515381" lon="8.028515">
        <ele>394.395156</ele>
        <time>2021-11-07T15:57:38.867Z</time>
      </trkpt>
      <trkpt lat="47.515481" lon="8.029757">
        <ele>402.710586</ele>
        <time>2021-11-07T15:58:37.846Z</time>
      </trkpt>
      <trkpt lat="47.515614" lon="8.030515">
        <ele>407.807592</ele>
        <time>2021-11-07T15:59:14.684Z</time>
      </trkpt>
      <trkpt lat="47.515691" lon="8.030845">
        <ele>410.079866</ele>
        <time>2021-11-07T15:59:31.148Z</time>
      </trkpt>
      <trkpt lat="47.515842" lon="8.031330">
        <ele>413.555587</ele>
        <time>2021-11-07T15:59:56.316Z</time>
      </trkpt>
      <trkpt lat="47.516300" lon="8.032789">
        <ele>423.141414</ele>
        <time>2021-11-07T16:01:12.122Z</time>
      </trkpt>
      <trkpt lat="47.516568" lon="8.033645">
        <ele>428.509301</ele>
        <time>2021-11-07T16:01:56.504Z</time>
      </trkpt>
      <trkpt lat="47.516747" lon="8.034188">
        <ele>431.946943</ele>
        <time>2021-11-07T16:02:24.966Z</time>
      </trkpt>
      <trkpt lat="47.516785" lon="8.034519">
        <ele>433.255944</ele>
        <time>2021-11-07T16:02:40.741Z</time>
      </trkpt>
      <trkpt lat="47.516763" lon="8.034686">
        <ele>433.884509</ele>
        <time>2021-11-07T16:02:48.724Z</time>
      </trkpt>
      <trkpt lat="47.516756" lon="8.034742">
        <ele>434.094900</ele>
        <time>2021-11-07T16:02:51.418Z</time>
      </trkpt>
      <trkpt lat="47.516470" lon="8.035519">
        <ele>437.363957</ele>
        <time>2021-11-07T16:03:32.979Z</time>
      </trkpt>
      <trkpt lat="47.516415" lon="8.035902">
        <ele>438.810490</ele>
        <time>2021-11-07T16:03:51.397Z</time>
      </trkpt>
      <trkpt lat="47.516430" lon="8.036102">
        <ele>439.553885</ele>
        <time>2021-11-07T16:04:00.847Z</time>
      </trkpt>
      <trkpt lat="47.516512" lon="8.036332">
        <ele>440.514687</ele>
        <time>2021-11-07T16:04:13.037Z</time>
      </trkpt>
      <trkpt lat="47.516645" lon="8.036512">
        <ele>441.500300</ele>
        <time>2021-11-07T16:04:25.569Z</time>
      </trkpt>
      <trkpt lat="47.516778" lon="8.036607">
        <ele>442.259806</ele>
        <time>2021-11-07T16:04:35.829Z</time>
      </trkpt>
      <trkpt lat="47.516942" lon="8.036650">
        <ele>443.036418</ele>
        <time>2021-11-07T16:04:47.403Z</time>
      </trkpt>
      <trkpt lat="47.517234" lon="8.036656">
        <ele>444.398114</ele>
        <time>2021-11-07T16:05:07.719Z</time>
      </trkpt>
      <trkpt lat="47.517610" lon="8.036660">
        <ele>446.151408</ele>
        <time>2021-11-07T16:05:33.901Z</time>
      </trkpt>
      <trkpt lat="47.517767" lon="8.036682">
        <ele>446.886753</ele>
        <time>2021-11-07T16:05:44.874Z</time>
      </trkpt>
      <trkpt lat="47.517867" lon="8.036710">
        <ele>447.361306</ele>
        <time>2021-11-07T16:05:51.942Z</time>
      </trkpt>
      <trkpt lat="47.518081" lon="8.036770">
        <ele>448.376897</ele>
        <time>2021-11-07T16:06:07.075Z</time>
      </trkpt>
      <trkpt lat="47.518539" lon="8.036930">
        <ele>450.633265</ele>
        <time>2021-11-07T16:06:39.807Z</time>
      </trkpt>
      <trkpt lat="47.519072" lon="8.036945">
        <ele>453.879584</ele>
        <time>2021-11-07T16:07:16.953Z</time>
      </trkpt>
      <trkpt lat="47.519987" lon="8.036532">
        <ele>459.704645</ele>
        <time>2021-11-07T16:08:23.522Z</time>
      </trkpt>
      <trkpt lat="47.520056" lon="8.036498">
        <ele>460.147479</ele>
        <time>2021-11-07T16:08:28.559Z</time>
      </trkpt>
      <trkpt lat="47.520194" lon="8.036435">
        <ele>461.026869</ele>
        <time>2021-11-07T16:08:38.651Z</time>
      </trkpt>
      <trkpt lat="47.520340" lon="8.036369">
        <ele>461.794893</ele>
        <time>2021-11-07T16:08:49.227Z</time>
      </trkpt>
      <trkpt lat="47.520393" lon="8.036350">
        <ele>462.042536</ele>
        <time>2021-11-07T16:08:53.093Z</time>
      </trkpt>
      <trkpt lat="47.520916" lon="8.036204">
        <ele>464.459479</ele>
        <time>2021-11-07T16:09:30.121Z</time>
      </trkpt>
      <trkpt lat="47.521258" lon="8.036231">
        <ele>466.014813</ele>
        <time>2021-11-07T16:09:53.943Z</time>
      </trkpt>
      <trkpt lat="47.521381" lon="8.036270">
        <ele>466.586056</ele>
        <time>2021-11-07T16:10:02.710Z</time>
      </trkpt>
      <trkpt lat="47.521466" lon="8.036296">
        <ele>466.980217</ele>
        <time>2021-11-07T16:10:08.725Z</time>
      </trkpt>
      <trkpt lat="47.521951" lon="8.036491">
        <ele>469.262495</ele>
        <time>2021-11-07T16:10:43.706Z</time>
      </trkpt>
      <trkpt lat="47.522589" lon="8.036591">
        <ele>468.780363</ele>
        <time>2021-11-07T16:11:28.265Z</time>
      </trkpt>
      <trkpt lat="47.522729" lon="8.036577">
        <ele>468.612248</ele>
        <time>2021-11-07T16:11:38.035Z</time>
      </trkpt>
      <trkpt lat="47.522908" lon="8.036517">
        <ele>468.392363</ele>
        <time>2021-11-07T16:11:50.767Z</time>
      </trkpt>
      <trkpt lat="47.523897" lon="8.036063">
        <ele>467.231891</ele>
        <time>2021-11-07T16:13:02.799Z</time>
      </trkpt>
      <trkpt lat="47.524622" lon="8.035732">
        <ele>466.721847</ele>
        <time>2021-11-07T16:13:55.503Z</time>
      </trkpt>
      <trkpt lat="47.524948" lon="8.035593">
        <ele>466.493779</ele>
        <time>2021-11-07T16:14:19.072Z</time>
      </trkpt>
      <trkpt lat="47.525143" lon="8.035534">
        <ele>466.359975</ele>
        <time>2021-11-07T16:14:32.895Z</time>
      </trkpt>
      <trkpt lat="47.525199" lon="8.035517">
        <ele>466.321544</ele>
        <time>2021-11-07T16:14:36.873Z</time>
      </trkpt>
      <trkpt lat="47.525448" lon="8.035439">
        <ele>466.150442</ele>
        <time>2021-11-07T16:14:54.574Z</time>
      </trkpt>
      <trkpt lat="47.526022" lon="8.035374">
        <ele>466.407401</ele>
        <time>2021-11-07T16:15:34.552Z</time>
      </trkpt>
      <trkpt lat="47.526771" lon="8.035396">
        <ele>466.800600</ele>
        <time>2021-11-07T16:16:26.623Z</time>
      </trkpt>
      <trkpt lat="47.527673" lon="8.035416">
        <ele>465.651487</ele>
        <time>2021-11-07T16:17:29.357Z</time>
      </trkpt>
      <trkpt lat="47.527719" lon="8.035419">
        <ele>465.484347</ele>
        <time>2021-11-07T16:17:32.570Z</time>
      </trkpt>
      <trkpt lat="47.528222" lon="8.035425">
        <ele>463.658418</ele>
        <time>2021-11-07T16:18:07.530Z</time>
      </trkpt>
      <trkpt lat="47.528330" lon="8.035426">
        <ele>463.266375</ele>
        <time>2021-11-07T16:18:15.030Z</time>
      </trkpt>
      <trkpt lat="47.528499" lon="8.035463">
        <ele>462.646245</ele>
        <time>2021-11-07T16:18:26.902Z</time>
      </trkpt>
      <trkpt lat="47.528632" lon="8.035511">
        <ele>462.149332</ele>
        <time>2021-11-07T16:18:36.439Z</time>
      </trkpt>
      <trkpt lat="47.528685" lon="8.035551">
        <ele>461.933403</ele>
        <time>2021-11-07T16:18:40.632Z</time>
      </trkpt>
      <trkpt lat="47.529415" lon="8.036548">
        <ele>458.845110</ele>
        <time>2021-11-07T16:19:49.679Z</time>
      </trkpt>
      <trkpt lat="47.529594" lon="8.036716">
        <ele>458.255475</ele>
        <time>2021-11-07T16:20:04.432Z</time>
      </trkpt>
      <trkpt lat="47.529802" lon="8.036810">
        <ele>457.650393</ele>
        <time>2021-11-07T16:20:19.541Z</time>
      </trkpt>
      <trkpt lat="47.529857" lon="8.036835">
        <ele>457.490316</ele>
        <time>2021-11-07T16:20:23.511Z</time>
      </trkpt>
      <trkpt lat="47.529967" lon="8.036849">
        <ele>457.183125</ele>
        <time>2021-11-07T16:20:31.245Z</time>
      </trkpt>
      <trkpt lat="47.530078" lon="8.036829">
        <ele>456.872002</ele>
        <time>2021-11-07T16:20:39.005Z</time>
      </trkpt>
      <trkpt lat="47.530189" lon="8.036784">
        <ele>456.551794</ele>
        <time>2021-11-07T16:20:46.984Z</time>
      </trkpt>
      <trkpt lat="47.530326" lon="8.036693">
        <ele>456.134025</ele>
        <time>2021-11-07T16:20:57.440Z</time>
      </trkpt>
      <trkpt lat="47.530555" lon="8.036505">
        <ele>455.358993</ele>
        <time>2021-11-07T16:21:15.636Z</time>
      </trkpt>
      <trkpt lat="47.531129" lon="8.036010">
        <ele>452.849792</ele>
        <time>2021-11-07T16:22:01.786Z</time>
      </trkpt>
      <trkpt lat="47.531850" lon="8.035386">
        <ele>449.695131</ele>
        <time>2021-11-07T16:22:59.877Z</time>
      </trkpt>
      <trkpt lat="47.532372" lon="8.034956">
        <ele>445.514898</ele>
        <time>2021-11-07T16:23:41.469Z</time>
      </trkpt>
      <trkpt lat="47.532563" lon="8.034738">
        <ele>443.258150</ele>
        <time>2021-11-07T16:23:58.295Z</time>
      </trkpt>
      <trkpt lat="47.532695" lon="8.034506">
        <ele>441.341055</ele>
        <time>2021-11-07T16:24:12.592Z</time>
      </trkpt>
      <trkpt lat="47.533121" lon="8.033377">
        <ele>433.168605</ele>
        <time>2021-11-07T16:25:13.540Z</time>
      </trkpt>
      <trkpt lat="47.533213" lon="8.033283">
        <ele>432.122586</ele>
        <time>2021-11-07T16:25:21.311Z</time>
      </trkpt>
      <trkpt lat="47.533431" lon="8.033320">
        <ele>429.996005</ele>
        <time>2021-11-07T16:25:36.635Z</time>
      </trkpt>
      <trkpt lat="47.533544" lon="8.033538">
        <ele>428.190426</ele>
        <time>2021-11-07T16:25:49.577Z</time>
      </trkpt>
      <trkpt lat="47.533693" lon="8.034653">
        <ele>420.723229</ele>
        <time>2021-11-07T16:26:43.090Z</time>
      </trkpt>
      <trkpt lat="47.533861" lon="8.035378">
        <ele>415.687567</ele>
        <time>2021-11-07T16:27:19.172Z</time>
      </trkpt>
      <trkpt lat="47.534096" lon="8.035934">
        <ele>411.284951</ele>
        <time>2021-11-07T16:27:50.087Z</time>
      </trkpt>
      <trkpt lat="47.534197" lon="8.036173">
        <ele>409.375584</ele>
        <time>2021-11-07T16:28:03.358Z</time>
      </trkpt>
      <trkpt lat="47.534438" lon="8.036566">
        <ele>405.780347</ele>
        <time>2021-11-07T16:28:28.372Z</time>
      </trkpt>
      <trkpt lat="47.534824" lon="8.037044">
        <ele>400.733867</ele>
        <time>2021-11-07T16:29:03.506Z</time>
      </trkpt>
      <trkpt lat="47.535234" lon="8.037415">
        <ele>395.904947</ele>
        <time>2021-11-07T16:29:37.064Z</time>
      </trkpt>
      <trkpt lat="47.535392" lon="8.037553">
        <ele>394.024771</ele>
        <time>2021-11-07T16:29:49.850Z</time>
      </trkpt>
      <trkpt lat="47.535422" lon="8.037579">
        <ele>393.668486</ele>
        <time>2021-11-07T16:29:50.148Z</time>
      </trkpt>
      <trkpt lat="47.535603" lon="8.037763">
        <ele>391.418226</ele>
        <time>2021-11-07T16:29:52.050Z</time>
      </trkpt>
      <trkpt lat="47.535873" lon="8.038069">
        <ele>387.933392</ele>
        <time>2021-11-07T16:29:54.971Z</time>
      </trkpt>
      <trkpt lat="47.537246" lon="8.039781">
        <ele>368.731156</ele>
        <time>2021-11-07T16:30:10.371Z</time>
      </trkpt>
      <trkpt lat="47.537321" lon="8.039892">
        <ele>367.540058</ele>
        <time>2021-11-07T16:30:11.265Z</time>
      </trkpt>
      <trkpt lat="47.537434" lon="8.040115">
        <ele>365.425285</ele>
        <time>2021-11-07T16:30:12.859Z</time>
      </trkpt>
      <trkpt lat="47.537590" lon="8.040865">
        <ele>359.473061</ele>
        <time>2021-11-07T16:30:17.335Z</time>
      </trkpt>
      <trkpt lat="47.537697" lon="8.041635">
        <ele>354.528481</ele>
        <time>2021-11-07T16:30:21.811Z</time>
      </trkpt>
      <trkpt lat="47.537748" lon="8.041977">
        <ele>352.514185</ele>
        <time>2021-11-07T16:30:23.840Z</time>
      </trkpt>
      <trkpt lat="47.537814" lon="8.042475">
        <ele>349.595464</ele>
        <time>2021-11-07T16:30:26.818Z</time>
      </trkpt>
      <trkpt lat="47.537820" lon="8.042654">
        <ele>348.564748</ele>
        <time>2021-11-07T16:30:27.866Z</time>
      </trkpt>
      <trkpt lat="47.537814" lon="8.042851">
        <ele>347.430626</ele>
        <time>2021-11-07T16:30:29.108Z</time>
      </trkpt>
      <trkpt lat="47.537774" lon="8.043160">
        <ele>345.621158</ele>
        <time>2021-11-07T16:30:30.990Z</time>
      </trkpt>
      <trkpt lat="47.537732" lon="8.043404">
        <ele>344.172990</ele>
        <time>2021-11-07T16:30:32.582Z</time>
      </trkpt>
      <trkpt lat="47.537487" lon="8.044776">
        <ele>340.425158</ele>
        <time>2021-11-07T16:30:41.907Z</time>
      </trkpt>
      <trkpt lat="47.537460" lon="8.044932">
        <ele>340.138949</ele>
        <time>2021-11-07T16:30:43.291Z</time>
      </trkpt>
      <trkpt lat="47.537686" lon="8.045112">
        <ele>339.463461</ele>
        <time>2021-11-07T16:30:46.242Z</time>
      </trkpt>
      <trkpt lat="47.538203" lon="8.045387">
        <ele>338.017386</ele>
        <time>2021-11-07T16:30:52.857Z</time>
      </trkpt>
      <trkpt lat="47.538294" lon="8.045418">
        <ele>337.771578</ele>
        <time>2021-11-07T16:30:53.874Z</time>
      </trkpt>
      <trkpt lat="47.538340" lon="8.045430">
        <ele>337.653745</ele>
        <time>2021-11-07T16:30:54.447Z</time>
      </trkpt>
      <trkpt lat="47.538479" lon="8.045444">
        <ele>337.406674</ele>
        <time>2021-11-07T16:30:56.152Z</time>
      </trkpt>
      <trkpt lat="47.538763" lon="8.045382">
        <ele>336.897589</ele>
        <time>2021-11-07T16:30:59.411Z</time>
      </trkpt>
      <trkpt lat="47.538912" lon="8.045281">
        <ele>336.607000</ele>
        <time>2021-11-07T16:31:01.277Z</time>
      </trkpt>
      <trkpt lat="47.538984" lon="8.045208">
        <ele>336.452270</ele>
        <time>2021-11-07T16:31:02.210Z</time>
      </trkpt>
      <trkpt lat="47.539049" lon="8.045146">
        <ele>336.315168</ele>
        <time>2021-11-07T16:31:03.110Z</time>
      </trkpt>
      <trkpt lat="47.539168" lon="8.044994">
        <ele>336.036510</ele>
        <time>2021-11-07T16:31:04.735Z</time>
      </trkpt>
      <trkpt lat="47.539357" lon="8.044726">
        <ele>335.572524</ele>
        <time>2021-11-07T16:31:07.524Z</time>
      </trkpt>
      <trkpt lat="47.539485" lon="8.044571">
        <ele>335.279333</ele>
        <time>2021-11-07T16:31:09.268Z</time>
      </trkpt>
      <trkpt lat="47.539769" lon="8.044372">
        <ele>334.722183</ele>
        <time>2021-11-07T16:31:12.607Z</time>
      </trkpt>
      <trkpt lat="47.540105" lon="8.044383">
        <ele>334.699041</ele>
        <time>2021-11-07T16:31:16.485Z</time>
      </trkpt>
      <trkpt lat="47.540316" lon="8.044416">
        <ele>334.941392</ele>
        <time>2021-11-07T16:31:19.550Z</time>
      </trkpt>
      <trkpt lat="47.540345" lon="8.044329">
        <ele>335.016209</ele>
        <time>2021-11-07T16:31:20.425Z</time>
      </trkpt>
      <trkpt lat="47.540360" lon="8.044061">
        <ele>335.223570</ele>
        <time>2021-11-07T16:31:23.722Z</time>
      </trkpt>
      <trkpt lat="47.540394" lon="8.043626">
        <ele>335.561234</ele>
        <time>2021-11-07T16:31:30.925Z</time>
      </trkpt>
      <trkpt lat="47.540392" lon="8.043542">
        <ele>335.626046</ele>
        <time>2021-11-07T16:31:32.574Z</time>
      </trkpt>
      <trkpt lat="47.540358" lon="8.043349">
        <ele>335.779850</ele>
        <time>2021-11-07T16:31:36.809Z</time>
      </trkpt>
      <trkpt lat="47.540311" lon="8.043099">
        <ele>335.979958</ele>
        <time>2021-11-07T16:31:40.877Z</time>
      </trkpt>
      <trkpt lat="47.540230" lon="8.042774">
        <ele>336.247096</ele>
        <time>2021-11-07T16:31:47.086Z</time>
      </trkpt>
      <trkpt lat="47.540115" lon="8.042499">
        <ele>336.496535</ele>
        <time>2021-11-07T16:31:51.867Z</time>
      </trkpt>
      <trkpt lat="47.540094" lon="8.042446">
        <ele>336.520960</ele>
        <time>2021-11-07T16:31:53.223Z</time>
      </trkpt>
      <trkpt lat="47.540072" lon="8.042391">
        <ele>336.493960</ele>
        <time>2021-11-07T16:31:54.276Z</time>
      </trkpt>
      <trkpt lat="47.540034" lon="8.042303">
        <ele>336.449841</ele>
        <time>2021-11-07T16:31:57.279Z</time>
      </trkpt>
      <trkpt lat="47.540021" lon="8.042268">
        <ele>336.432970</ele>
        <time>2021-11-07T16:31:58.448Z</time>
      </trkpt>
      <trkpt lat="47.539991" lon="8.042065">
        <ele>336.345206</ele>
        <time>2021-11-07T16:32:03.766Z</time>
      </trkpt>
      <trkpt lat="47.539983" lon="8.041866">
        <ele>336.261012</ele>
        <time>2021-11-07T16:32:09.234Z</time>
      </trkpt>
      <trkpt lat="47.539998" lon="8.041644">
        <ele>336.166785</ele>
        <time>2021-11-07T16:32:12.040Z</time>
      </trkpt>
      <trkpt lat="47.540031" lon="8.041477">
        <ele>336.093295</ele>
        <time>2021-11-07T16:32:14.453Z</time>
      </trkpt>
      <trkpt lat="47.540079" lon="8.041350">
        <ele>336.031825</ele>
        <time>2021-11-07T16:32:16.305Z</time>
      </trkpt>
      <trkpt lat="47.540116" lon="8.041253">
        <ele>335.984771</ele>
        <time>2021-11-07T16:32:17.387Z</time>
      </trkpt>
      <trkpt lat="47.540240" lon="8.040995">
        <ele>335.851014</ele>
        <time>2021-11-07T16:32:20.288Z</time>
      </trkpt>
      <trkpt lat="47.540564" lon="8.040358">
        <ele>335.514174</ele>
        <time>2021-11-07T16:32:26.452Z</time>
      </trkpt>
      <trkpt lat="47.540612" lon="8.040244">
        <ele>335.457431</ele>
        <time>2021-11-07T16:32:27.491Z</time>
      </trkpt>
      <trkpt lat="47.540755" lon="8.039911">
        <ele>334.727515</ele>
        <time>2021-11-07T16:32:30.097Z</time>
      </trkpt>
      <trkpt lat="47.540973" lon="8.039326">
        <ele>333.039688</ele>
        <time>2021-11-07T16:32:34.367Z</time>
      </trkpt>
      <trkpt lat="47.541029" lon="8.038776">
        <ele>331.634747</ele>
        <time>2021-11-07T16:32:37.855Z</time>
      </trkpt>
      <trkpt lat="47.541015" lon="8.038511">
        <ele>330.963345</ele>
        <time>2021-11-07T16:32:39.489Z</time>
      </trkpt>
      <trkpt lat="47.541006" lon="8.038351">
        <ele>330.557805</ele>
        <time>2021-11-07T16:32:40.542Z</time>
      </trkpt>
      <trkpt lat="47.540394" lon="8.031575">
        <ele>321.810540</ele>
        <time>2021-11-07T16:33:32.362Z</time>
      </trkpt>
      <trkpt lat="47.540324" lon="8.030594">
        <ele>321.241250</ele>
        <time>2021-11-07T16:33:40.916Z</time>
      </trkpt>
      <trkpt lat="47.540275" lon="8.029790">
        <ele>320.775374</ele>
        <time>2021-11-07T16:33:48.252Z</time>
      </trkpt>
      <trkpt lat="47.540273" lon="8.028579">
        <ele>320.686293</ele>
        <time>2021-11-07T16:33:59.946Z</time>
      </trkpt>
      <trkpt lat="47.540306" lon="8.026756">
        <ele>320.801450</ele>
        <time>2021-11-07T16:34:18.597Z</time>
      </trkpt>
      <trkpt lat="47.540408" lon="8.025334">
        <ele>321.634898</ele>
        <time>2021-11-07T16:34:34.666Z</time>
      </trkpt>
      <trkpt lat="47.540490" lon="8.024315">
        <ele>322.343267</ele>
        <time>2021-11-07T16:34:48.448Z</time>
      </trkpt>
      <trkpt lat="47.540537" lon="8.023536">
        <ele>324.419538</ele>
        <time>2021-11-07T16:35:01.213Z</time>
      </trkpt>
      <trkpt lat="47.540454" lon="8.023022">
        <ele>325.822559</ele>
        <time>2021-11-07T16:35:11.114Z</time>
      </trkpt>
      <trkpt lat="47.540354" lon="8.022332">
        <ele>327.696057</ele>
        <time>2021-11-07T16:35:26.901Z</time>
      </trkpt>
      <trkpt lat="47.540204" lon="8.020975">
        <ele>333.044312</ele>
        <time>2021-11-07T16:36:04.424Z</time>
      </trkpt>
      <trkpt lat="47.540134" lon="8.020585">
        <ele>334.993763</ele>
        <time>2021-11-07T16:36:16.767Z</time>
      </trkpt>
      <trkpt lat="47.540098" lon="8.020321">
        <ele>336.294844</ele>
        <time>2021-11-07T16:36:25.550Z</time>
      </trkpt>
      <trkpt lat="47.540052" lon="8.019825">
        <ele>338.713411</ele>
        <time>2021-11-07T16:36:41.145Z</time>
      </trkpt>
      <trkpt lat="47.540031" lon="8.019456">
        <ele>340.502290</ele>
        <time>2021-11-07T16:36:52.400Z</time>
      </trkpt>
      <trkpt lat="47.540012" lon="8.018657">
        <ele>343.701086</ele>
        <time>2021-11-07T16:37:16.274Z</time>
      </trkpt>
      <trkpt lat="47.539979" lon="8.017566">
        <ele>347.399099</ele>
        <time>2021-11-07T16:37:45.549Z</time>
      </trkpt>
      <trkpt lat="47.539918" lon="8.015722">
        <ele>351.467091</ele>
        <time>2021-11-07T16:38:18.290Z</time>
      </trkpt>
      <trkpt lat="47.539908" lon="8.015397">
        <ele>351.599779</ele>
        <time>2021-11-07T16:38:22.943Z</time>
      </trkpt>
      <trkpt lat="47.539903" lon="8.015200">
        <ele>351.680182</ele>
        <time>2021-11-07T16:38:24.685Z</time>
      </trkpt>
      <trkpt lat="47.539798" lon="8.012369">
        <ele>351.170346</ele>
        <time>2021-11-07T16:38:48.987Z</time>
      </trkpt>
      <trkpt lat="47.539703" lon="8.011107">
        <ele>350.213642</ele>
        <time>2021-11-07T16:38:58.679Z</time>
      </trkpt>
      <trkpt lat="47.539645" lon="8.009866">
        <ele>349.599686</ele>
        <time>2021-11-07T16:39:08.631Z</time>
      </trkpt>
      <trkpt lat="47.539569" lon="8.007914">
        <ele>349.111487</ele>
        <time>2021-11-07T16:39:27.079Z</time>
      </trkpt>
      <trkpt lat="47.539590" lon="8.005890">
        <ele>349.814954</ele>
        <time>2021-11-07T16:39:52.678Z</time>
      </trkpt>
      <trkpt lat="47.539492" lon="8.004516">
        <ele>348.018151</ele>
        <time>2021-11-07T16:40:05.853Z</time>
      </trkpt>
      <trkpt lat="47.539434" lon="8.003156">
        <ele>346.099562</ele>
        <time>2021-11-07T16:40:15.001Z</time>
      </trkpt>
      <trkpt lat="47.539437" lon="8.002963">
        <ele>345.243184</ele>
        <time>2021-11-07T16:40:16.223Z</time>
      </trkpt>
      <trkpt lat="47.539437" lon="8.002525">
        <ele>343.300210</ele>
        <time>2021-11-07T16:40:18.961Z</time>
      </trkpt>
      <trkpt lat="47.539400" lon="8.001871">
        <ele>340.388887</ele>
        <time>2021-11-07T16:40:22.968Z</time>
      </trkpt>
      <trkpt lat="47.539365" lon="8.001150">
        <ele>337.182260</ele>
        <time>2021-11-07T16:40:27.309Z</time>
      </trkpt>
      <trkpt lat="47.539569" lon="7.998315">
        <ele>323.892498</ele>
        <time>2021-11-07T16:40:44.434Z</time>
      </trkpt>
      <trkpt lat="47.539590" lon="7.998122">
        <ele>322.968311</ele>
        <time>2021-11-07T16:40:45.619Z</time>
      </trkpt>
      <trkpt lat="47.539726" lon="7.997265">
        <ele>320.208988</ele>
        <time>2021-11-07T16:40:51.268Z</time>
      </trkpt>
      <trkpt lat="47.539838" lon="7.996117">
        <ele>317.369595</ele>
        <time>2021-11-07T16:40:58.923Z</time>
      </trkpt>
      <trkpt lat="47.539876" lon="7.995796">
        <ele>316.571828</ele>
        <time>2021-11-07T16:41:01.200Z</time>
      </trkpt>
      <trkpt lat="47.540013" lon="7.995140">
        <ele>315.111365</ele>
        <time>2021-11-07T16:41:06.541Z</time>
      </trkpt>
      <trkpt lat="47.540089" lon="7.994896">
        <ele>314.933506</ele>
        <time>2021-11-07T16:41:08.585Z</time>
      </trkpt>
      <trkpt lat="47.540316" lon="7.993620">
        <ele>314.060120</ele>
        <time>2021-11-07T16:41:19.497Z</time>
      </trkpt>
      <trkpt lat="47.540262" lon="7.992244">
        <ele>313.478806</ele>
        <time>2021-11-07T16:41:31.722Z</time>
      </trkpt>
      <trkpt lat="47.540194" lon="7.991768">
        <ele>313.535072</ele>
        <time>2021-11-07T16:41:36.677Z</time>
      </trkpt>
      <trkpt lat="47.540140" lon="7.991504">
        <ele>313.566973</ele>
        <time>2021-11-07T16:41:39.569Z</time>
      </trkpt>
      <trkpt lat="47.540104" lon="7.991287">
        <ele>313.592815</ele>
        <time>2021-11-07T16:41:56.549Z</time>
      </trkpt>
      <trkpt lat="47.540056" lon="7.990982">
        <ele>313.629032</ele>
        <time>2021-11-07T16:41:59.982Z</time>
      </trkpt>
      <trkpt lat="47.540018" lon="7.990553">
        <ele>313.679069</ele>
        <time>2021-11-07T16:42:04.810Z</time>
      </trkpt>
      <trkpt lat="47.540011" lon="7.990131">
        <ele>313.727886</ele>
        <time>2021-11-07T16:42:09.651Z</time>
      </trkpt>
      <trkpt lat="47.539990" lon="7.989097">
        <ele>314.077767</ele>
        <time>2021-11-07T16:42:21.659Z</time>
      </trkpt>
      <trkpt lat="47.539978" lon="7.988189">
        <ele>314.402998</ele>
        <time>2021-11-07T16:42:32.481Z</time>
      </trkpt>
      <trkpt lat="47.540321" lon="7.987087">
        <ele>314.730060</ele>
        <time>2021-11-07T16:42:45.767Z</time>
      </trkpt>
      <trkpt lat="47.540335" lon="7.986933">
        <ele>314.744653</ele>
        <time>2021-11-07T16:42:47.648Z</time>
      </trkpt>
      <trkpt lat="47.540347" lon="7.986737">
        <ele>314.763134</ele>
        <time>2021-11-07T16:42:49.778Z</time>
      </trkpt>
      <trkpt lat="47.539952" lon="7.986630">
        <ele>314.818994</ele>
        <time>2021-11-07T16:42:56.024Z</time>
      </trkpt>
      <trkpt lat="47.539549" lon="7.986535">
        <ele>314.875761</ele>
        <time>2021-11-07T16:43:01.577Z</time>
      </trkpt>
      <trkpt lat="47.539415" lon="7.986507">
        <ele>314.894586</ele>
        <time>2021-11-07T16:43:03.525Z</time>
      </trkpt>
      <trkpt lat="47.539274" lon="7.986488">
        <ele>314.914282</ele>
        <time>2021-11-07T16:43:05.237Z</time>
      </trkpt>
      <trkpt lat="47.538630" lon="7.986438">
        <ele>315.472749</ele>
        <time>2021-11-07T16:43:16.200Z</time>
      </trkpt>
      <trkpt lat="47.538514" lon="7.986428">
        <ele>315.611253</ele>
        <time>2021-11-07T16:43:17.748Z</time>
      </trkpt>
      <trkpt lat="47.538277" lon="7.986431">
        <ele>315.893763</ele>
        <time>2021-11-07T16:43:23.192Z</time>
      </trkpt>
      <trkpt lat="47.537897" lon="7.986428">
        <ele>316.346723</ele>
        <time>2021-11-07T16:43:31.271Z</time>
      </trkpt>
      <trkpt lat="47.537821" lon="7.986433">
        <ele>316.437403</ele>
        <time>2021-11-07T16:43:32.301Z</time>
      </trkpt>
      <trkpt lat="47.537821" lon="7.986433">
        <ele>316.437403</ele>
        <time>2021-11-07T16:43:32.370Z</time>
      </trkpt>
      <trkpt lat="47.537821" lon="7.986433">
        <ele>316.437403</ele>
        <time>2021-11-07T16:43:32.375Z</time>
      </trkpt>
      <trkpt lat="47.537815" lon="7.986191">
        <ele>316.632275</ele>
        <time>2021-11-07T16:43:36.134Z</time>
      </trkpt>
      <trkpt lat="47.537812" lon="7.986127">
        <ele>316.683900</ele>
        <time>2021-11-07T16:43:37.694Z</time>
      </trkpt>
      <trkpt lat="47.537884" lon="7.985939">
        <ele>316.857834</ele>
        <time>2021-11-07T16:43:40.008Z</time>
      </trkpt>
      <trkpt lat="47.538208" lon="7.985592">
        <ele>317.611174</ele>
        <time>2021-11-07T16:43:48.683Z</time>
      </trkpt>
      <trkpt lat="47.538160" lon="7.985490">
        <ele>317.822706</ele>
        <time>2021-11-07T16:43:50.713Z</time>
      </trkpt>
      <trkpt lat="47.537773" lon="7.984992">
        <ele>319.114601</ele>
        <time>2021-11-07T16:44:03.476Z</time>
      </trkpt>
      <trkpt lat="47.537732" lon="7.984941">
        <ele>319.249524</ele>
        <time>2021-11-07T16:44:04.488Z</time>
      </trkpt>
      <trkpt lat="47.537326" lon="7.984415">
        <ele>320.608819</ele>
        <time>2021-11-07T16:44:19.203Z</time>
      </trkpt>
      <trkpt lat="47.537175" lon="7.984220">
        <ele>321.113665</ele>
        <time>2021-11-07T16:44:24.256Z</time>
      </trkpt>
      <trkpt lat="47.536849" lon="7.983808">
        <ele>322.406612</ele>
        <time>2021-11-07T16:44:34.765Z</time>
      </trkpt>
      <trkpt lat="47.536410" lon="7.983244">
        <ele>324.413718</ele>
        <time>2021-11-07T16:44:51.264Z</time>
      </trkpt>
      <trkpt lat="47.536530" lon="7.982859">
        <ele>325.402501</ele>
        <time>2021-11-07T16:44:59.654Z</time>
      </trkpt>
      <trkpt lat="47.536764" lon="7.982225">
        <ele>327.087329</ele>
        <time>2021-11-07T16:45:14.865Z</time>
      </trkpt>
      <trkpt lat="47.536775" lon="7.982096">
        <ele>327.390514</ele>
        <time>2021-11-07T16:45:17.460Z</time>
      </trkpt>
      <trkpt lat="47.536842" lon="7.981878">
        <ele>327.913729</ele>
        <time>2021-11-07T16:45:22.549Z</time>
      </trkpt>
      <trkpt lat="47.536896" lon="7.981697">
        <ele>328.237197</ele>
        <time>2021-11-07T16:45:26.605Z</time>
      </trkpt>
      <trkpt lat="47.536959" lon="7.981602">
        <ele>328.454871</ele>
        <time>2021-11-07T16:45:29.086Z</time>
      </trkpt>
      <trkpt lat="47.537107" lon="7.981082">
        <ele>329.377316</ele>
        <time>2021-11-07T16:45:40.035Z</time>
      </trkpt>
      <trkpt lat="47.537461" lon="7.980118">
        <ele>331.171100</ele>
        <time>2021-11-07T16:45:58.588Z</time>
      </trkpt>
      <trkpt lat="47.537583" lon="7.979760">
        <ele>331.826612</ele>
        <time>2021-11-07T16:46:04.592Z</time>
      </trkpt>
      <trkpt lat="47.537955" lon="7.978125">
        <ele>331.452441</ele>
        <time>2021-11-07T16:46:20.935Z</time>
      </trkpt>
      <trkpt lat="47.538107" lon="7.977240">
        <ele>331.007563</ele>
        <time>2021-11-07T16:46:27.841Z</time>
      </trkpt>
      <trkpt lat="47.538242" lon="7.976347">
        <ele>329.998258</ele>
        <time>2021-11-07T16:46:34.717Z</time>
      </trkpt>
      <trkpt lat="47.538706" lon="7.974459">
        <ele>327.325470</ele>
        <time>2021-11-07T16:46:49.647Z</time>
      </trkpt>
      <trkpt lat="47.539262" lon="7.971768">
        <ele>322.966994</ele>
        <time>2021-11-07T16:47:09.990Z</time>
      </trkpt>
      <trkpt lat="47.539783" lon="7.969587">
        <ele>319.325600</ele>
        <time>2021-11-07T16:47:26.471Z</time>
      </trkpt>
      <trkpt lat="47.540214" lon="7.967628">
        <ele>317.177941</ele>
        <time>2021-11-07T16:47:42.271Z</time>
      </trkpt>
      <trkpt lat="47.540896" lon="7.964711">
        <ele>315.092922</ele>
        <time>2021-11-07T16:48:08.375Z</time>
      </trkpt>
      <trkpt lat="47.541095" lon="7.964204">
        <ele>314.740366</ele>
        <time>2021-11-07T16:48:13.413Z</time>
      </trkpt>
      <trkpt lat="47.541169" lon="7.964123">
        <ele>314.650685</ele>
        <time>2021-11-07T16:48:14.371Z</time>
      </trkpt>
      <trkpt lat="47.541129" lon="7.964008">
        <ele>314.565565</ele>
        <time>2021-11-07T16:48:15.814Z</time>
      </trkpt>
      <trkpt lat="47.541019" lon="7.963815">
        <ele>314.399370</ele>
        <time>2021-11-07T16:48:18.164Z</time>
      </trkpt>
      <trkpt lat="47.541123" lon="7.963520">
        <ele>314.180394</ele>
        <time>2021-11-07T16:48:20.897Z</time>
      </trkpt>
      <trkpt lat="47.541217" lon="7.963187">
        <ele>313.942907</ele>
        <time>2021-11-07T16:48:23.799Z</time>
      </trkpt>
      <trkpt lat="47.541258" lon="7.962975">
        <ele>313.797806</ele>
        <time>2021-11-07T16:48:26.194Z</time>
      </trkpt>
      <trkpt lat="47.541293" lon="7.962730">
        <ele>313.633035</ele>
        <time>2021-11-07T16:48:28.177Z</time>
      </trkpt>
      <trkpt lat="47.541308" lon="7.962513">
        <ele>313.489509</ele>
        <time>2021-11-07T16:48:30.202Z</time>
      </trkpt>
      <trkpt lat="47.541314" lon="7.962377">
        <ele>313.399835</ele>
        <time>2021-11-07T16:48:31.556Z</time>
      </trkpt>
      <trkpt lat="47.541316" lon="7.962197">
        <ele>313.281385</ele>
        <time>2021-11-07T16:48:32.900Z</time>
      </trkpt>
      <trkpt lat="47.541242" lon="7.961294">
        <ele>311.866936</ele>
        <time>2021-11-07T16:48:39.924Z</time>
      </trkpt>
      <trkpt lat="47.541153" lon="7.960814">
        <ele>310.943322</ele>
        <time>2021-11-07T16:48:43.454Z</time>
      </trkpt>
      <trkpt lat="47.541060" lon="7.960321">
        <ele>309.993525</ele>
        <time>2021-11-07T16:48:47.043Z</time>
      </trkpt>
      <trkpt lat="47.541027" lon="7.959944">
        <ele>309.288151</ele>
        <time>2021-11-07T16:48:49.546Z</time>
      </trkpt>
      <trkpt lat="47.541019" lon="7.959792">
        <ele>309.005261</ele>
        <time>2021-11-07T16:48:50.591Z</time>
      </trkpt>
      <trkpt lat="47.541012" lon="7.959578">
        <ele>308.607722</ele>
        <time>2021-11-07T16:48:52.066Z</time>
      </trkpt>
      <trkpt lat="47.541016" lon="7.959388">
        <ele>308.255008</ele>
        <time>2021-11-07T16:48:53.267Z</time>
      </trkpt>
      <trkpt lat="47.541081" lon="7.958828">
        <ele>306.969657</ele>
        <time>2021-11-07T16:48:57.037Z</time>
      </trkpt>
      <trkpt lat="47.541226" lon="7.958150">
        <ele>305.341042</ele>
        <time>2021-11-07T16:49:01.798Z</time>
      </trkpt>
      <trkpt lat="47.541305" lon="7.957787">
        <ele>304.467673</ele>
        <time>2021-11-07T16:49:04.282Z</time>
      </trkpt>
      <trkpt lat="47.541355" lon="7.957559">
        <ele>303.918715</ele>
        <time>2021-11-07T16:49:05.982Z</time>
      </trkpt>
      <trkpt lat="47.541450" lon="7.956897">
        <ele>302.368921</ele>
        <time>2021-11-07T16:49:10.618Z</time>
      </trkpt>
      <trkpt lat="47.541464" lon="7.956698">
        <ele>302.031690</ele>
        <time>2021-11-07T16:49:12.023Z</time>
      </trkpt>
      <trkpt lat="47.541533" lon="7.955526">
        <ele>301.195518</ele>
        <time>2021-11-07T16:49:20.856Z</time>
      </trkpt>
      <trkpt lat="47.541554" lon="7.955311">
        <ele>301.041114</ele>
        <time>2021-11-07T16:49:22.895Z</time>
      </trkpt>
      <trkpt lat="47.541735" lon="7.953892">
        <ele>300.235132</ele>
        <time>2021-11-07T16:49:37.104Z</time>
      </trkpt>
      <trkpt lat="47.541773" lon="7.953695">
        <ele>300.270205</ele>
        <time>2021-11-07T16:49:39.351Z</time>
      </trkpt>
      <trkpt lat="47.541791" lon="7.953601">
        <ele>300.286931</ele>
        <time>2021-11-07T16:49:40.386Z</time>
      </trkpt>
      <trkpt lat="47.541991" lon="7.952667">
        <ele>300.454669</ele>
        <time>2021-11-07T16:49:51.241Z</time>
      </trkpt>
      <trkpt lat="47.542169" lon="7.951815">
        <ele>300.607343</ele>
        <time>2021-11-07T16:50:00.979Z</time>
      </trkpt>
      <trkpt lat="47.542192" lon="7.951713">
        <ele>300.625752</ele>
        <time>2021-11-07T16:50:02.241Z</time>
      </trkpt>
      <trkpt lat="47.542357" lon="7.951037">
        <ele>300.745284</ele>
        <time>2021-11-07T16:50:09.707Z</time>
      </trkpt>
      <trkpt lat="47.542444" lon="7.950687">
        <ele>300.806891</ele>
        <time>2021-11-07T16:50:13.537Z</time>
      </trkpt>
      <trkpt lat="47.542546" lon="7.950274">
        <ele>300.879532</ele>
        <time>2021-11-07T16:50:17.883Z</time>
      </trkpt>
      <trkpt lat="47.542554" lon="7.950231">
        <ele>300.886899</ele>
        <time>2021-11-07T16:50:18.371Z</time>
      </trkpt>
      <trkpt lat="47.542560" lon="7.950202">
        <ele>300.891909</ele>
        <time>2021-11-07T16:50:18.704Z</time>
      </trkpt>
      <trkpt lat="47.542609" lon="7.949914">
        <ele>300.940968</ele>
        <time>2021-11-07T16:50:21.703Z</time>
      </trkpt>
      <trkpt lat="47.542719" lon="7.949175">
        <ele>301.065967</ele>
        <time>2021-11-07T16:50:29.607Z</time>
      </trkpt>
      <trkpt lat="47.542826" lon="7.948298">
        <ele>301.766990</ele>
        <time>2021-11-07T16:50:40.550Z</time>
      </trkpt>
      <trkpt lat="47.542838" lon="7.948225">
        <ele>301.834561</ele>
        <time>2021-11-07T16:50:41.377Z</time>
      </trkpt>
      <trkpt lat="47.542875" lon="7.948001">
        <ele>302.041957</ele>
        <time>2021-11-07T16:50:44.261Z</time>
      </trkpt>
      <trkpt lat="47.542928" lon="7.947798">
        <ele>302.237703</ele>
        <time>2021-11-07T16:50:47.183Z</time>
      </trkpt>
      <trkpt lat="47.542957" lon="7.947651">
        <ele>302.375437</ele>
        <time>2021-11-07T16:50:48.891Z</time>
      </trkpt>
      <trkpt lat="47.543050" lon="7.947411">
        <ele>302.624313</ele>
        <time>2021-11-07T16:50:53.256Z</time>
      </trkpt>
      <trkpt lat="47.543087" lon="7.947317">
        <ele>302.722173</ele>
        <time>2021-11-07T16:50:54.772Z</time>
      </trkpt>
      <trkpt lat="47.543092" lon="7.947257">
        <ele>302.776543</ele>
        <time>2021-11-07T16:50:55.842Z</time>
      </trkpt>
      <trkpt lat="47.543097" lon="7.947186">
        <ele>302.840743</ele>
        <time>2021-11-07T16:50:56.663Z</time>
      </trkpt>
      <trkpt lat="47.543086" lon="7.947052">
        <ele>302.962142</ele>
        <time>2021-11-07T16:50:58.439Z</time>
      </trkpt>
      <trkpt lat="47.543056" lon="7.946935">
        <ele>303.074700</ele>
        <time>2021-11-07T16:51:00.756Z</time>
      </trkpt>
      <trkpt lat="47.543045" lon="7.946881">
        <ele>303.125428</ele>
        <time>2021-11-07T16:51:01.846Z</time>
      </trkpt>
      <trkpt lat="47.542982" lon="7.946547">
        <ele>303.437314</ele>
        <time>2021-11-07T16:51:06.743Z</time>
      </trkpt>
      <trkpt lat="47.542974" lon="7.946495">
        <ele>303.485414</ele>
        <time>2021-11-07T16:51:07.914Z</time>
      </trkpt>
      <trkpt lat="47.542960" lon="7.946400">
        <ele>303.602399</ele>
        <time>2021-11-07T16:51:09.673Z</time>
      </trkpt>
      <trkpt lat="47.542916" lon="7.945730">
        <ele>304.412273</ele>
        <time>2021-11-07T16:51:20.467Z</time>
      </trkpt>
      <trkpt lat="47.542913" lon="7.945267">
        <ele>304.969328</ele>
        <time>2021-11-07T16:51:27.679Z</time>
      </trkpt>
      <trkpt lat="47.542920" lon="7.945158">
        <ele>305.101056</ele>
        <time>2021-11-07T16:51:29.594Z</time>
      </trkpt>
      <trkpt lat="47.543007" lon="7.943867">
        <ele>306.661961</ele>
        <time>2021-11-07T16:51:48.572Z</time>
      </trkpt>
      <trkpt lat="47.543161" lon="7.942213">
        <ele>306.488246</ele>
        <time>2021-11-07T16:52:06.525Z</time>
      </trkpt>
      <trkpt lat="47.543435" lon="7.940670">
        <ele>305.712546</ele>
        <time>2021-11-07T16:52:19.211Z</time>
      </trkpt>
      <trkpt lat="47.543826" lon="7.939433">
        <ele>304.172343</ele>
        <time>2021-11-07T16:52:29.636Z</time>
      </trkpt>
      <trkpt lat="47.543836" lon="7.939410">
        <ele>304.141494</ele>
        <time>2021-11-07T16:52:29.801Z</time>
      </trkpt>
      <trkpt lat="47.544472" lon="7.937932">
        <ele>302.137240</ele>
        <time>2021-11-07T16:52:42.952Z</time>
      </trkpt>
      <trkpt lat="47.544705" lon="7.937395">
        <ele>301.400636</ele>
        <time>2021-11-07T16:52:47.809Z</time>
      </trkpt>
      <trkpt lat="47.544903" lon="7.936917">
        <ele>300.753511</ele>
        <time>2021-11-07T16:52:52.162Z</time>
      </trkpt>
      <trkpt lat="47.545074" lon="7.936484">
        <ele>300.208595</ele>
        <time>2021-11-07T16:52:56.046Z</time>
      </trkpt>
      <trkpt lat="47.545457" lon="7.935110">
        <ele>299.026324</ele>
        <time>2021-11-07T16:53:07.440Z</time>
      </trkpt>
      <trkpt lat="47.545674" lon="7.933625">
        <ele>298.398742</ele>
        <time>2021-11-07T16:53:20.509Z</time>
      </trkpt>
      <trkpt lat="47.545702" lon="7.933290">
        <ele>298.579987</ele>
        <time>2021-11-07T16:53:24.073Z</time>
      </trkpt>
      <trkpt lat="47.545724" lon="7.932758">
        <ele>298.866168</ele>
        <time>2021-11-07T16:53:30.339Z</time>
      </trkpt>
      <trkpt lat="47.545722" lon="7.932217">
        <ele>299.156651</ele>
        <time>2021-11-07T16:53:37.268Z</time>
      </trkpt>
      <trkpt lat="47.545721" lon="7.931992">
        <ele>299.277462</ele>
        <time>2021-11-07T16:53:40.400Z</time>
      </trkpt>
      <trkpt lat="47.545696" lon="7.931497">
        <ele>299.543985</ele>
        <time>2021-11-07T16:53:47.602Z</time>
      </trkpt>
      <trkpt lat="47.545661" lon="7.930955">
        <ele>300.136330</ele>
        <time>2021-11-07T16:53:56.298Z</time>
      </trkpt>
      <trkpt lat="47.545563" lon="7.929641">
        <ele>301.729949</ele>
        <time>2021-11-07T16:54:18.656Z</time>
      </trkpt>
      <trkpt lat="47.545475" lon="7.928419">
        <ele>302.457248</ele>
        <time>2021-11-07T16:54:34.959Z</time>
      </trkpt>
      <trkpt lat="47.545421" lon="7.927686">
        <ele>301.686360</ele>
        <time>2021-11-07T16:54:41.062Z</time>
      </trkpt>
      <trkpt lat="47.545406" lon="7.927306">
        <ele>301.288398</ele>
        <time>2021-11-07T16:54:43.966Z</time>
      </trkpt>
      <trkpt lat="47.545407" lon="7.927001">
        <ele>300.969522</ele>
        <time>2021-11-07T16:54:46.253Z</time>
      </trkpt>
      <trkpt lat="47.545409" lon="7.926773">
        <ele>300.731132</ele>
        <time>2021-11-07T16:54:47.882Z</time>
      </trkpt>
      <trkpt lat="47.545417" lon="7.925848">
        <ele>299.389026</ele>
        <time>2021-11-07T16:54:54.217Z</time>
      </trkpt>
      <trkpt lat="47.545446" lon="7.925350">
        <ele>298.106105</ele>
        <time>2021-11-07T16:54:57.509Z</time>
      </trkpt>
      <trkpt lat="47.545466" lon="7.924880">
        <ele>296.897402</ele>
        <time>2021-11-07T16:55:00.562Z</time>
      </trkpt>
      <trkpt lat="47.545481" lon="7.924396">
        <ele>295.653853</ele>
        <time>2021-11-07T16:55:03.646Z</time>
      </trkpt>
      <trkpt lat="47.545521" lon="7.923709">
        <ele>293.884044</ele>
        <time>2021-11-07T16:55:08.171Z</time>
      </trkpt>
      <trkpt lat="47.545536" lon="7.923407">
        <ele>293.150210</ele>
        <time>2021-11-07T16:55:10.319Z</time>
      </trkpt>
      <trkpt lat="47.545553" lon="7.923142">
        <ele>292.858141</ele>
        <time>2021-11-07T16:55:12.150Z</time>
      </trkpt>
      <trkpt lat="47.545587" lon="7.922895">
        <ele>292.581555</ele>
        <time>2021-11-07T16:55:14.083Z</time>
      </trkpt>
      <trkpt lat="47.545641" lon="7.922610">
        <ele>292.256767</ele>
        <time>2021-11-07T16:55:16.229Z</time>
      </trkpt>
      <trkpt lat="47.545690" lon="7.922369">
        <ele>291.980606</ele>
        <time>2021-11-07T16:55:18.236Z</time>
      </trkpt>
      <trkpt lat="47.545699" lon="7.922325">
        <ele>291.930162</ele>
        <time>2021-11-07T16:55:18.530Z</time>
      </trkpt>
      <trkpt lat="47.545714" lon="7.922249">
        <ele>291.843283</ele>
        <time>2021-11-07T16:55:19.120Z</time>
      </trkpt>
      <trkpt lat="47.545778" lon="7.921947">
        <ele>291.495983</ele>
        <time>2021-11-07T16:55:21.822Z</time>
      </trkpt>
      <trkpt lat="47.545810" lon="7.921755">
        <ele>291.278994</ele>
        <time>2021-11-07T16:55:23.303Z</time>
      </trkpt>
      <trkpt lat="47.545881" lon="7.921096">
        <ele>290.546789</ele>
        <time>2021-11-07T16:55:28.765Z</time>
      </trkpt>
      <trkpt lat="47.545913" lon="7.920765">
        <ele>290.244416</ele>
        <time>2021-11-07T16:55:31.658Z</time>
      </trkpt>
      <trkpt lat="47.545973" lon="7.920313">
        <ele>290.151476</ele>
        <time>2021-11-07T16:55:36.128Z</time>
      </trkpt>
      <trkpt lat="47.546128" lon="7.919617">
        <ele>290.003609</ele>
        <time>2021-11-07T16:55:43.369Z</time>
      </trkpt>
      <trkpt lat="47.546262" lon="7.919081">
        <ele>289.888290</ele>
        <time>2021-11-07T16:55:49.417Z</time>
      </trkpt>
      <trkpt lat="47.546821" lon="7.916867">
        <ele>289.132331</ele>
        <time>2021-11-07T16:56:10.085Z</time>
      </trkpt>
      <trkpt lat="47.547032" lon="7.916218">
        <ele>288.856155</ele>
        <time>2021-11-07T16:56:16.392Z</time>
      </trkpt>
      <trkpt lat="47.547091" lon="7.916039">
        <ele>288.779784</ele>
        <time>2021-11-07T16:56:18.166Z</time>
      </trkpt>
      <trkpt lat="47.547113" lon="7.915971">
        <ele>288.750874</ele>
        <time>2021-11-07T16:56:18.756Z</time>
      </trkpt>
      <trkpt lat="47.547423" lon="7.915080">
        <ele>288.759725</ele>
        <time>2021-11-07T16:56:28.244Z</time>
      </trkpt>
      <trkpt lat="47.547994" lon="7.913433">
        <ele>288.920719</ele>
        <time>2021-11-07T16:56:47.948Z</time>
      </trkpt>
      <trkpt lat="47.548027" lon="7.913334">
        <ele>288.993951</ele>
        <time>2021-11-07T16:56:49.307Z</time>
      </trkpt>
      <trkpt lat="47.548412" lon="7.912168">
        <ele>289.854867</ele>
        <time>2021-11-07T16:57:05.710Z</time>
      </trkpt>
      <trkpt lat="47.549012" lon="7.910340">
        <ele>291.360650</ele>
        <time>2021-11-07T16:57:32.626Z</time>
      </trkpt>
      <trkpt lat="47.549102" lon="7.910058">
        <ele>291.626625</ele>
        <time>2021-11-07T16:57:36.744Z</time>
      </trkpt>
      <trkpt lat="47.549195" lon="7.909756">
        <ele>291.909663</ele>
        <time>2021-11-07T16:57:41.066Z</time>
      </trkpt>
      <trkpt lat="47.549354" lon="7.909228">
        <ele>292.402641</ele>
        <time>2021-11-07T16:57:48.565Z</time>
      </trkpt>
      <trkpt lat="47.549520" lon="7.908678">
        <ele>292.916352</ele>
        <time>2021-11-07T16:57:56.347Z</time>
      </trkpt>
      <trkpt lat="47.549539" lon="7.908625">
        <ele>292.999800</ele>
        <time>2021-11-07T16:57:57.080Z</time>
      </trkpt>
      <trkpt lat="47.550497" lon="7.905558">
        <ele>298.643017</ele>
        <time>2021-11-07T16:58:52.198Z</time>
      </trkpt>
      <trkpt lat="47.550283" lon="7.905413">
        <ele>299.456926</ele>
        <time>2021-11-07T16:59:00.174Z</time>
      </trkpt>
      <trkpt lat="47.550208" lon="7.905355">
        <ele>299.749546</ele>
        <time>2021-11-07T16:59:03.585Z</time>
      </trkpt>
      <trkpt lat="47.550067" lon="7.905245">
        <ele>300.300712</ele>
        <time>2021-11-07T16:59:08.860Z</time>
      </trkpt>
      <trkpt lat="47.549867" lon="7.905155">
        <ele>301.023672</ele>
        <time>2021-11-07T16:59:16.729Z</time>
      </trkpt>
      <trkpt lat="47.549868" lon="7.905010">
        <ele>301.362193</ele>
        <time>2021-11-07T16:59:19.978Z</time>
      </trkpt>
      <trkpt lat="47.550025" lon="7.904774">
        <ele>302.135767</ele>
        <time>2021-11-07T16:59:28.212Z</time>
      </trkpt>
      <trkpt lat="47.550302" lon="7.904164">
        <ele>303.898562</ele>
        <time>2021-11-07T16:59:46.427Z</time>
      </trkpt>
      <trkpt lat="47.550498" lon="7.903445">
        <ele>305.816967</ele>
        <time>2021-11-07T17:00:05.916Z</time>
      </trkpt>
      <trkpt lat="47.550688" lon="7.902451">
        <ele>308.372820</ele>
        <time>2021-11-07T17:00:28.464Z</time>
      </trkpt>
      <trkpt lat="47.550757" lon="7.901591">
        <ele>310.637791</ele>
        <time>2021-11-07T17:00:48.260Z</time>
      </trkpt>
      <trkpt lat="47.550769" lon="7.901362">
        <ele>311.288056</ele>
        <time>2021-11-07T17:00:54.168Z</time>
      </trkpt>
      <trkpt lat="47.550801" lon="7.900244">
        <ele>314.456028</ele>
        <time>2021-11-07T17:01:18.566Z</time>
      </trkpt>
      <trkpt lat="47.550819" lon="7.898109">
        <ele>319.733650</ele>
        <time>2021-11-07T17:02:05.606Z</time>
      </trkpt>
      <trkpt lat="47.550648" lon="7.896481">
        <ele>323.116900</ele>
        <time>2021-11-07T17:02:33.261Z</time>
      </trkpt>
      <trkpt lat="47.550639" lon="7.896345">
        <ele>323.230698</ele>
        <time>2021-11-07T17:02:35.636Z</time>
      </trkpt>
      <trkpt lat="47.550660" lon="7.896255">
        <ele>323.309998</ele>
        <time>2021-11-07T17:02:36.437Z</time>
      </trkpt>
      <trkpt lat="47.550838" lon="7.895509">
        <ele>323.968908</ele>
        <time>2021-11-07T17:02:46.605Z</time>
      </trkpt>
      <trkpt lat="47.550878" lon="7.895158">
        <ele>324.265340</ele>
        <time>2021-11-07T17:02:50.667Z</time>
      </trkpt>
      <trkpt lat="47.550908" lon="7.894308">
        <ele>324.974144</ele>
        <time>2021-11-07T17:03:01.139Z</time>
      </trkpt>
      <trkpt lat="47.550892" lon="7.893176">
        <ele>327.109790</ele>
        <time>2021-11-07T17:03:15.857Z</time>
      </trkpt>
      <trkpt lat="47.550904" lon="7.891725">
        <ele>330.373997</ele>
        <time>2021-11-07T17:03:45.619Z</time>
      </trkpt>
      <trkpt lat="47.550915" lon="7.890600">
        <ele>334.324377</ele>
        <time>2021-11-07T17:04:14.459Z</time>
      </trkpt>
      <trkpt lat="47.550833" lon="7.889069">
        <ele>340.673343</ele>
        <time>2021-11-07T17:04:57.093Z</time>
      </trkpt>
      <trkpt lat="47.550831" lon="7.888611">
        <ele>342.553007</ele>
        <time>2021-11-07T17:05:09.663Z</time>
      </trkpt>
      <trkpt lat="47.550789" lon="7.887816">
        <ele>345.716337</ele>
        <time>2021-11-07T17:05:30.274Z</time>
      </trkpt>
      <trkpt lat="47.550758" lon="7.887295">
        <ele>347.791108</ele>
        <time>2021-11-07T17:05:44.096Z</time>
      </trkpt>
      <trkpt lat="47.550677" lon="7.886476">
        <ele>351.074699</ele>
        <time>2021-11-07T17:06:05.585Z</time>
      </trkpt>
      <trkpt lat="47.550548" lon="7.885799">
        <ele>353.642837</ele>
        <time>2021-11-07T17:06:22.788Z</time>
      </trkpt>
      <trkpt lat="47.550391" lon="7.885109">
        <ele>355.929055</ele>
        <time>2021-11-07T17:06:40.425Z</time>
      </trkpt>
      <trkpt lat="47.550332" lon="7.884727">
        <ele>357.159441</ele>
        <time>2021-11-07T17:06:49.116Z</time>
      </trkpt>
      <trkpt lat="47.550234" lon="7.883221">
        <ele>361.726369</ele>
        <time>2021-11-07T17:07:21.947Z</time>
      </trkpt>
      <trkpt lat="47.549927" lon="7.881490">
        <ele>365.960491</ele>
        <time>2021-11-07T17:07:54.211Z</time>
      </trkpt>
      <trkpt lat="47.549726" lon="7.880786">
        <ele>367.832783</ele>
        <time>2021-11-07T17:08:10.187Z</time>
      </trkpt>
      <trkpt lat="47.549327" lon="7.879547">
        <ele>371.775140</ele>
        <time>2021-11-07T17:08:39.971Z</time>
      </trkpt>
      <trkpt lat="47.549318" lon="7.879398">
        <ele>372.204744</ele>
        <time>2021-11-07T17:08:43.160Z</time>
      </trkpt>
      <trkpt lat="47.549140" lon="7.879391">
        <ele>372.962358</ele>
        <time>2021-11-07T17:08:50.030Z</time>
      </trkpt>
      <trkpt lat="47.548718" lon="7.879258">
        <ele>374.798042</ele>
        <time>2021-11-07T17:09:03.701Z</time>
      </trkpt>
      <trkpt lat="47.548422" lon="7.878959">
        <ele>375.657569</ele>
        <time>2021-11-07T17:09:14.348Z</time>
      </trkpt>
      <trkpt lat="47.548234" lon="7.878638">
        <ele>376.201690</ele>
        <time>2021-11-07T17:09:22.780Z</time>
      </trkpt>
      <trkpt lat="47.547992" lon="7.877974">
        <ele>377.167825</ele>
        <time>2021-11-07T17:09:35.877Z</time>
      </trkpt>
      <trkpt lat="47.547574" lon="7.876801">
        <ele>378.031273</ele>
        <time>2021-11-07T17:09:49.640Z</time>
      </trkpt>
      <trkpt lat="47.547126" lon="7.875801">
        <ele>375.698791</ele>
        <time>2021-11-07T17:09:58.423Z</time>
      </trkpt>
      <trkpt lat="47.546309" lon="7.874154">
        <ele>369.877572</ele>
        <time>2021-11-07T17:10:11.611Z</time>
      </trkpt>
      <trkpt lat="47.546135" lon="7.873859">
        <ele>368.252201</ele>
        <time>2021-11-07T17:10:13.993Z</time>
      </trkpt>
      <trkpt lat="47.546077" lon="7.873763">
        <ele>367.717662</ele>
        <time>2021-11-07T17:10:14.804Z</time>
      </trkpt>
      <trkpt lat="47.545934" lon="7.873549">
        <ele>366.468311</ele>
        <time>2021-11-07T17:10:16.609Z</time>
      </trkpt>
      <trkpt lat="47.545746" lon="7.873302">
        <ele>364.923808</ele>
        <time>2021-11-07T17:10:18.897Z</time>
      </trkpt>
      <trkpt lat="47.545515" lon="7.873015">
        <ele>363.070736</ele>
        <time>2021-11-07T17:10:21.596Z</time>
      </trkpt>
      <trkpt lat="47.545478" lon="7.872968">
        <ele>362.771159</ele>
        <time>2021-11-07T17:10:22.038Z</time>
      </trkpt>
      <trkpt lat="47.545375" lon="7.872836">
        <ele>361.900645</ele>
        <time>2021-11-07T17:10:23.231Z</time>
      </trkpt>
      <trkpt lat="47.545131" lon="7.872664">
        <ele>360.088325</ele>
        <time>2021-11-07T17:10:25.690Z</time>
      </trkpt>
      <trkpt lat="47.544883" lon="7.872555">
        <ele>358.353335</ele>
        <time>2021-11-07T17:10:28.013Z</time>
      </trkpt>
      <trkpt lat="47.544390" lon="7.872423">
        <ele>354.993221</ele>
        <time>2021-11-07T17:10:32.477Z</time>
      </trkpt>
      <trkpt lat="47.543332" lon="7.872237">
        <ele>350.236997</ele>
        <time>2021-11-07T17:10:42.244Z</time>
      </trkpt>
      <trkpt lat="47.543251" lon="7.872152">
        <ele>350.236997</ele>
        <time>2021-11-07T17:10:43.185Z</time>
      </trkpt>
      <trkpt lat="47.543233" lon="7.872082">
        <ele>350.236997</ele>
        <time>2021-11-07T17:10:43.606Z</time>
      </trkpt>
      <trkpt lat="47.543013" lon="7.872182">
        <ele>350.236997</ele>
        <time>2021-11-07T17:10:45.854Z</time>
      </trkpt>
      <trkpt lat="47.542919" lon="7.872226">
        <ele>350.236997</ele>
        <time>2021-11-07T17:10:46.780Z</time>
      </trkpt>
      <trkpt lat="47.542814" lon="7.872280">
        <ele>350.236997</ele>
        <time>2021-11-07T17:10:47.831Z</time>
      </trkpt>
      <trkpt lat="47.542714" lon="7.872334">
        <ele>350.236997</ele>
        <time>2021-11-07T17:10:48.914Z</time>
      </trkpt>
      <trkpt lat="47.542537" lon="7.872430">
        <ele>350.236997</ele>
        <time>2021-11-07T17:10:50.647Z</time>
      </trkpt>
      <trkpt lat="47.542436" lon="7.872494">
        <ele>350.236997</ele>
        <time>2021-11-07T17:10:51.950Z</time>
      </trkpt>
      <trkpt lat="47.542394" lon="7.872341">
        <ele>350.236997</ele>
        <time>2021-11-07T17:10:53.036Z</time>
      </trkpt>
      <trkpt lat="47.542218" lon="7.871866">
        <ele>350.236997</ele>
        <time>2021-11-07T17:10:56.694Z</time>
      </trkpt>
      <trkpt lat="47.542091" lon="7.871721">
        <ele>350.236997</ele>
        <time>2021-11-07T17:10:58.210Z</time>
      </trkpt>
      <trkpt lat="47.542067" lon="7.871664">
        <ele>350.236997</ele>
        <time>2021-11-07T17:10:58.905Z</time>
      </trkpt>
      <trkpt lat="47.542039" lon="7.871556">
        <ele>350.236997</ele>
        <time>2021-11-07T17:10:59.787Z</time>
      </trkpt>
      <trkpt lat="47.542039" lon="7.871556">
        <ele>350.236997</ele>
        <time>2021-11-07T17:10:59.788Z</time>
      </trkpt>
    </trkseg>
  </trk>
</gpx>